<?xml version="1.0" encoding="UTF-8" standalone="no" ?>
<gpx xmlns="http://www.topografix.com/GPX/1/1" xmlns:xsi="http://www.w3.org/2001/XMLSchema-instance" xsi:schemaLocation="http://www.topografix.com/GPX/1/1 http://www.topografix.com/GPX/1/1/gpx.xsd" version="1.1" creator="VisuGPX - https://www.visugpx.com">
  <metadata>
    <name>Lac de GREZIOLLE</name>
    <desc><![CDATA[Route du col du Tourmalet, départ 2km après Artigues, dans un virage en fer de cheval.]]></desc>
  </metadata>
  <trk>
    <name><![CDATA[Lac de Gréziolles]]></name>
    <trkseg>
      <trkpt lat="42.91726" lon="0.20942">
        <ele>1404.9</ele>
        <time>2016-07-24T07:21:29Z</time>
      </trkpt>
      <trkpt lat="42.91725" lon="0.20942">
        <ele>1404.8</ele>
        <time>2016-07-24T07:21:30Z</time>
      </trkpt>
      <trkpt lat="42.91726" lon="0.20943">
        <ele>1404.1</ele>
        <time>2016-07-24T07:22:00Z</time>
      </trkpt>
      <trkpt lat="42.91719" lon="0.2095">
        <ele>1405</ele>
        <time>2016-07-24T07:22:43Z</time>
      </trkpt>
      <trkpt lat="42.91718" lon="0.20951">
        <ele>1404.9</ele>
        <time>2016-07-24T07:22:44Z</time>
      </trkpt>
      <trkpt lat="42.91704" lon="0.20947">
        <ele>1408.7</ele>
        <time>2016-07-24T07:23:10Z</time>
      </trkpt>
      <trkpt lat="42.91695" lon="0.20942">
        <ele>1410.1</ele>
        <time>2016-07-24T07:23:28Z</time>
      </trkpt>
      <trkpt lat="42.91687" lon="0.20941">
        <ele>1409</ele>
        <time>2016-07-24T07:23:34Z</time>
      </trkpt>
      <trkpt lat="42.91679" lon="0.20939">
        <ele>1409.6</ele>
        <time>2016-07-24T07:23:47Z</time>
      </trkpt>
      <trkpt lat="42.91678" lon="0.20939">
        <ele>1409.5</ele>
        <time>2016-07-24T07:23:48Z</time>
      </trkpt>
      <trkpt lat="42.91662" lon="0.20938">
        <ele>1409.3</ele>
        <time>2016-07-24T07:24:03Z</time>
      </trkpt>
      <trkpt lat="42.91655" lon="0.20932">
        <ele>1408</ele>
        <time>2016-07-24T07:24:10Z</time>
      </trkpt>
      <trkpt lat="42.91648" lon="0.20926">
        <ele>1406.6</ele>
        <time>2016-07-24T07:24:17Z</time>
      </trkpt>
      <trkpt lat="42.91641" lon="0.20934">
        <ele>1403.9</ele>
        <time>2016-07-24T07:24:37Z</time>
      </trkpt>
      <trkpt lat="42.91642" lon="0.20945">
        <ele>1401.6</ele>
        <time>2016-07-24T07:24:48Z</time>
      </trkpt>
      <trkpt lat="42.91642" lon="0.20946">
        <ele>1401.6</ele>
        <time>2016-07-24T07:24:49Z</time>
      </trkpt>
      <trkpt lat="42.91632" lon="0.20961">
        <ele>1399.4</ele>
        <time>2016-07-24T07:25:05Z</time>
      </trkpt>
      <trkpt lat="42.91634" lon="0.20973">
        <ele>1400.7</ele>
        <time>2016-07-24T07:25:29Z</time>
      </trkpt>
      <trkpt lat="42.91633" lon="0.20985">
        <ele>1405.2</ele>
        <time>2016-07-24T07:25:53Z</time>
      </trkpt>
      <trkpt lat="42.91633" lon="0.20986">
        <ele>1405.4</ele>
        <time>2016-07-24T07:25:54Z</time>
      </trkpt>
      <trkpt lat="42.91623" lon="0.21004">
        <ele>1409.8</ele>
        <time>2016-07-24T07:26:28Z</time>
      </trkpt>
      <trkpt lat="42.91617" lon="0.21012">
        <ele>1410.7</ele>
        <time>2016-07-24T07:26:37Z</time>
      </trkpt>
      <trkpt lat="42.91611" lon="0.21021">
        <ele>1409.6</ele>
        <time>2016-07-24T07:26:51Z</time>
      </trkpt>
      <trkpt lat="42.91611" lon="0.21033">
        <ele>1409.8</ele>
        <time>2016-07-24T07:27:21Z</time>
      </trkpt>
      <trkpt lat="42.9161" lon="0.21034">
        <ele>1410.1</ele>
        <time>2016-07-24T07:27:22Z</time>
      </trkpt>
      <trkpt lat="42.91604" lon="0.21053">
        <ele>1411.7</ele>
        <time>2016-07-24T07:27:37Z</time>
      </trkpt>
      <trkpt lat="42.91598" lon="0.21062">
        <ele>1414</ele>
        <time>2016-07-24T07:27:46Z</time>
      </trkpt>
      <trkpt lat="42.91602" lon="0.21073">
        <ele>1416</ele>
        <time>2016-07-24T07:27:55Z</time>
      </trkpt>
      <trkpt lat="42.91608" lon="0.21081">
        <ele>1417.3</ele>
        <time>2016-07-24T07:28:02Z</time>
      </trkpt>
      <trkpt lat="42.91608" lon="0.21093">
        <ele>1417.4</ele>
        <time>2016-07-24T07:28:12Z</time>
      </trkpt>
      <trkpt lat="42.91603" lon="0.21103">
        <ele>1418.8</ele>
        <time>2016-07-24T07:28:21Z</time>
      </trkpt>
      <trkpt lat="42.91598" lon="0.21113">
        <ele>1421.5</ele>
        <time>2016-07-24T07:28:32Z</time>
      </trkpt>
      <trkpt lat="42.91598" lon="0.21114">
        <ele>1422.2</ele>
        <time>2016-07-24T07:28:33Z</time>
      </trkpt>
      <trkpt lat="42.91592" lon="0.21135">
        <ele>1425.9</ele>
        <time>2016-07-24T07:28:58Z</time>
      </trkpt>
      <trkpt lat="42.91586" lon="0.21143">
        <ele>1429.4</ele>
        <time>2016-07-24T07:29:15Z</time>
      </trkpt>
      <trkpt lat="42.91585" lon="0.21156">
        <ele>1434.1</ele>
        <time>2016-07-24T07:29:41Z</time>
      </trkpt>
      <trkpt lat="42.91586" lon="0.21156">
        <ele>1433.8</ele>
        <time>2016-07-24T07:29:42Z</time>
      </trkpt>
      <trkpt lat="42.9157" lon="0.21163">
        <ele>1441.6</ele>
        <time>2016-07-24T07:30:20Z</time>
      </trkpt>
      <trkpt lat="42.91561" lon="0.21164">
        <ele>1444.3</ele>
        <time>2016-07-24T07:30:42Z</time>
      </trkpt>
      <trkpt lat="42.91561" lon="0.21164">
        <ele>1445</ele>
        <time>2016-07-24T07:30:43Z</time>
      </trkpt>
      <trkpt lat="42.91561" lon="0.21188">
        <ele>1452.7</ele>
        <time>2016-07-24T07:31:19Z</time>
      </trkpt>
      <trkpt lat="42.91563" lon="0.212">
        <ele>1453.8</ele>
        <time>2016-07-24T07:31:32Z</time>
      </trkpt>
      <trkpt lat="42.9157" lon="0.21208">
        <ele>1457.4</ele>
        <time>2016-07-24T07:32:01Z</time>
      </trkpt>
      <trkpt lat="42.9157" lon="0.21208">
        <ele>1457.2</ele>
        <time>2016-07-24T07:32:02Z</time>
      </trkpt>
      <trkpt lat="42.91566" lon="0.21228">
        <ele>1462.8</ele>
        <time>2016-07-24T07:32:38Z</time>
      </trkpt>
      <trkpt lat="42.91564" lon="0.2124">
        <ele>1466.4</ele>
        <time>2016-07-24T07:33:09Z</time>
      </trkpt>
      <trkpt lat="42.91564" lon="0.21241">
        <ele>1466.9</ele>
        <time>2016-07-24T07:33:10Z</time>
      </trkpt>
      <trkpt lat="42.91566" lon="0.21263">
        <ele>1471</ele>
        <time>2016-07-24T07:33:36Z</time>
      </trkpt>
      <trkpt lat="42.91569" lon="0.21274">
        <ele>1473.6</ele>
        <time>2016-07-24T07:33:50Z</time>
      </trkpt>
      <trkpt lat="42.91572" lon="0.21284">
        <ele>1476.7</ele>
        <time>2016-07-24T07:34:04Z</time>
      </trkpt>
      <trkpt lat="42.91577" lon="0.21294">
        <ele>1480.6</ele>
        <time>2016-07-24T07:34:31Z</time>
      </trkpt>
      <trkpt lat="42.91578" lon="0.21294">
        <ele>1480.7</ele>
        <time>2016-07-24T07:34:32Z</time>
      </trkpt>
      <trkpt lat="42.91587" lon="0.21313">
        <ele>1484</ele>
        <time>2016-07-24T07:35:07Z</time>
      </trkpt>
      <trkpt lat="42.91591" lon="0.21324">
        <ele>1488.8</ele>
        <time>2016-07-24T07:35:39Z</time>
      </trkpt>
      <trkpt lat="42.91591" lon="0.21325">
        <ele>1489.1</ele>
        <time>2016-07-24T07:35:40Z</time>
      </trkpt>
      <trkpt lat="42.91589" lon="0.21335">
        <ele>1495.8</ele>
        <time>2016-07-24T07:36:22Z</time>
      </trkpt>
      <trkpt lat="42.91587" lon="0.21347">
        <ele>1499.4</ele>
        <time>2016-07-24T07:36:48Z</time>
      </trkpt>
      <trkpt lat="42.91587" lon="0.21347">
        <ele>1499.3</ele>
        <time>2016-07-24T07:36:49Z</time>
      </trkpt>
      <trkpt lat="42.9159" lon="0.21363">
        <ele>1506.7</ele>
        <time>2016-07-24T07:37:47Z</time>
      </trkpt>
      <trkpt lat="42.91588" lon="0.21375">
        <ele>1510.7</ele>
        <time>2016-07-24T07:38:09Z</time>
      </trkpt>
      <trkpt lat="42.91587" lon="0.21375">
        <ele>1511.1</ele>
        <time>2016-07-24T07:38:10Z</time>
      </trkpt>
      <trkpt lat="42.91584" lon="0.21398">
        <ele>1517</ele>
        <time>2016-07-24T07:38:41Z</time>
      </trkpt>
      <trkpt lat="42.91579" lon="0.21407">
        <ele>1518.8</ele>
        <time>2016-07-24T07:38:52Z</time>
      </trkpt>
      <trkpt lat="42.91577" lon="0.21418">
        <ele>1522.2</ele>
        <time>2016-07-24T07:39:05Z</time>
      </trkpt>
      <trkpt lat="42.91578" lon="0.2143">
        <ele>1522.6</ele>
        <time>2016-07-24T07:39:27Z</time>
      </trkpt>
      <trkpt lat="42.91577" lon="0.21431">
        <ele>1522.6</ele>
        <time>2016-07-24T07:39:28Z</time>
      </trkpt>
      <trkpt lat="42.9157" lon="0.21451">
        <ele>1527.8</ele>
        <time>2016-07-24T07:39:57Z</time>
      </trkpt>
      <trkpt lat="42.91569" lon="0.21463">
        <ele>1528.6</ele>
        <time>2016-07-24T07:40:10Z</time>
      </trkpt>
      <trkpt lat="42.91564" lon="0.21472">
        <ele>1529.6</ele>
        <time>2016-07-24T07:40:38Z</time>
      </trkpt>
      <trkpt lat="42.91563" lon="0.21472">
        <ele>1529.7</ele>
        <time>2016-07-24T07:40:39Z</time>
      </trkpt>
      <trkpt lat="42.91558" lon="0.21494">
        <ele>1529.8</ele>
        <time>2016-07-24T07:41:28Z</time>
      </trkpt>
      <trkpt lat="42.91555" lon="0.21505">
        <ele>1531.1</ele>
        <time>2016-07-24T07:41:40Z</time>
      </trkpt>
      <trkpt lat="42.91554" lon="0.21506">
        <ele>1531.3</ele>
        <time>2016-07-24T07:41:41Z</time>
      </trkpt>
      <trkpt lat="42.91551" lon="0.21527">
        <ele>1532.6</ele>
        <time>2016-07-24T07:42:08Z</time>
      </trkpt>
      <trkpt lat="42.91547" lon="0.21539">
        <ele>1533.6</ele>
        <time>2016-07-24T07:42:20Z</time>
      </trkpt>
      <trkpt lat="42.91541" lon="0.21548">
        <ele>1534.3</ele>
        <time>2016-07-24T07:42:30Z</time>
      </trkpt>
      <trkpt lat="42.91539" lon="0.21559">
        <ele>1535.2</ele>
        <time>2016-07-24T07:42:41Z</time>
      </trkpt>
      <trkpt lat="42.91539" lon="0.2156">
        <ele>1534.6</ele>
        <time>2016-07-24T07:42:42Z</time>
      </trkpt>
      <trkpt lat="42.91538" lon="0.21583">
        <ele>1535.4</ele>
        <time>2016-07-24T07:43:05Z</time>
      </trkpt>
      <trkpt lat="42.91536" lon="0.21594">
        <ele>1535.8</ele>
        <time>2016-07-24T07:43:17Z</time>
      </trkpt>
      <trkpt lat="42.91531" lon="0.21604">
        <ele>1535.1</ele>
        <time>2016-07-24T07:43:26Z</time>
      </trkpt>
      <trkpt lat="42.91526" lon="0.21613">
        <ele>1535.4</ele>
        <time>2016-07-24T07:43:35Z</time>
      </trkpt>
      <trkpt lat="42.91518" lon="0.2162">
        <ele>1535.4</ele>
        <time>2016-07-24T07:43:43Z</time>
      </trkpt>
      <trkpt lat="42.91517" lon="0.21621">
        <ele>1535.2</ele>
        <time>2016-07-24T07:43:44Z</time>
      </trkpt>
      <trkpt lat="42.91505" lon="0.21635">
        <ele>1536.2</ele>
        <time>2016-07-24T07:44:02Z</time>
      </trkpt>
      <trkpt lat="42.91498" lon="0.2164">
        <ele>1536.9</ele>
        <time>2016-07-24T07:44:10Z</time>
      </trkpt>
      <trkpt lat="42.91491" lon="0.21647">
        <ele>1538.1</ele>
        <time>2016-07-24T07:44:19Z</time>
      </trkpt>
      <trkpt lat="42.91484" lon="0.21654">
        <ele>1538</ele>
        <time>2016-07-24T07:44:29Z</time>
      </trkpt>
      <trkpt lat="42.91476" lon="0.21658">
        <ele>1538.5</ele>
        <time>2016-07-24T07:44:38Z</time>
      </trkpt>
      <trkpt lat="42.91469" lon="0.21663">
        <ele>1537.8</ele>
        <time>2016-07-24T07:44:46Z</time>
      </trkpt>
      <trkpt lat="42.91468" lon="0.21664">
        <ele>1537.9</ele>
        <time>2016-07-24T07:44:47Z</time>
      </trkpt>
      <trkpt lat="42.91454" lon="0.2167">
        <ele>1538</ele>
        <time>2016-07-24T07:45:02Z</time>
      </trkpt>
      <trkpt lat="42.91445" lon="0.21672">
        <ele>1540.5</ele>
        <time>2016-07-24T07:45:11Z</time>
      </trkpt>
      <trkpt lat="42.91437" lon="0.21674">
        <ele>1537.2</ele>
        <time>2016-07-24T07:45:19Z</time>
      </trkpt>
      <trkpt lat="42.91429" lon="0.21676">
        <ele>1537.6</ele>
        <time>2016-07-24T07:45:28Z</time>
      </trkpt>
      <trkpt lat="42.9142" lon="0.21676">
        <ele>1538.6</ele>
        <time>2016-07-24T07:45:39Z</time>
      </trkpt>
      <trkpt lat="42.91412" lon="0.21672">
        <ele>1539</ele>
        <time>2016-07-24T07:45:48Z</time>
      </trkpt>
      <trkpt lat="42.91411" lon="0.21672">
        <ele>1539.1</ele>
        <time>2016-07-24T07:45:49Z</time>
      </trkpt>
      <trkpt lat="42.91396" lon="0.21669">
        <ele>1539.1</ele>
        <time>2016-07-24T07:46:06Z</time>
      </trkpt>
      <trkpt lat="42.91387" lon="0.21666">
        <ele>1539</ele>
        <time>2016-07-24T07:46:15Z</time>
      </trkpt>
      <trkpt lat="42.91379" lon="0.21661">
        <ele>1540</ele>
        <time>2016-07-24T07:46:25Z</time>
      </trkpt>
      <trkpt lat="42.91372" lon="0.21656">
        <ele>1540.5</ele>
        <time>2016-07-24T07:46:34Z</time>
      </trkpt>
      <trkpt lat="42.91365" lon="0.2165">
        <ele>1539.7</ele>
        <time>2016-07-24T07:46:44Z</time>
      </trkpt>
      <trkpt lat="42.91357" lon="0.21645">
        <ele>1540.4</ele>
        <time>2016-07-24T07:46:54Z</time>
      </trkpt>
      <trkpt lat="42.91356" lon="0.21644">
        <ele>1540.6</ele>
        <time>2016-07-24T07:46:55Z</time>
      </trkpt>
      <trkpt lat="42.91341" lon="0.21636">
        <ele>1540.3</ele>
        <time>2016-07-24T07:47:14Z</time>
      </trkpt>
      <trkpt lat="42.91333" lon="0.21633">
        <ele>1540.3</ele>
        <time>2016-07-24T07:47:22Z</time>
      </trkpt>
      <trkpt lat="42.91325" lon="0.21629">
        <ele>1538.7</ele>
        <time>2016-07-24T07:47:31Z</time>
      </trkpt>
      <trkpt lat="42.91317" lon="0.21625">
        <ele>1538.1</ele>
        <time>2016-07-24T07:47:39Z</time>
      </trkpt>
      <trkpt lat="42.91309" lon="0.21621">
        <ele>1538.8</ele>
        <time>2016-07-24T07:47:47Z</time>
      </trkpt>
      <trkpt lat="42.91301" lon="0.21617">
        <ele>1538</ele>
        <time>2016-07-24T07:47:55Z</time>
      </trkpt>
      <trkpt lat="42.91301" lon="0.21616">
        <ele>1538</ele>
        <time>2016-07-24T07:47:56Z</time>
      </trkpt>
      <trkpt lat="42.91286" lon="0.21609">
        <ele>1538.5</ele>
        <time>2016-07-24T07:48:12Z</time>
      </trkpt>
      <trkpt lat="42.91279" lon="0.21604">
        <ele>1538.5</ele>
        <time>2016-07-24T07:48:20Z</time>
      </trkpt>
      <trkpt lat="42.91271" lon="0.21601">
        <ele>1537.7</ele>
        <time>2016-07-24T07:48:28Z</time>
      </trkpt>
      <trkpt lat="42.91263" lon="0.21598">
        <ele>1536.9</ele>
        <time>2016-07-24T07:48:36Z</time>
      </trkpt>
      <trkpt lat="42.91255" lon="0.21593">
        <ele>1537.1</ele>
        <time>2016-07-24T07:48:44Z</time>
      </trkpt>
      <trkpt lat="42.91247" lon="0.21589">
        <ele>1536.7</ele>
        <time>2016-07-24T07:48:54Z</time>
      </trkpt>
      <trkpt lat="42.91239" lon="0.21586">
        <ele>1535.5</ele>
        <time>2016-07-24T07:49:03Z</time>
      </trkpt>
      <trkpt lat="42.91238" lon="0.21585">
        <ele>1535.5</ele>
        <time>2016-07-24T07:49:04Z</time>
      </trkpt>
      <trkpt lat="42.91223" lon="0.21576">
        <ele>1535.5</ele>
        <time>2016-07-24T07:49:19Z</time>
      </trkpt>
      <trkpt lat="42.91216" lon="0.2157">
        <ele>1534.1</ele>
        <time>2016-07-24T07:49:28Z</time>
      </trkpt>
      <trkpt lat="42.91208" lon="0.21566">
        <ele>1533.6</ele>
        <time>2016-07-24T07:49:36Z</time>
      </trkpt>
      <trkpt lat="42.91202" lon="0.21559">
        <ele>1533.9</ele>
        <time>2016-07-24T07:49:43Z</time>
      </trkpt>
      <trkpt lat="42.91195" lon="0.21553">
        <ele>1534.2</ele>
        <time>2016-07-24T07:49:50Z</time>
      </trkpt>
      <trkpt lat="42.91188" lon="0.21545">
        <ele>1534.8</ele>
        <time>2016-07-24T07:49:59Z</time>
      </trkpt>
      <trkpt lat="42.91181" lon="0.2154">
        <ele>1535.7</ele>
        <time>2016-07-24T07:50:08Z</time>
      </trkpt>
      <trkpt lat="42.9118" lon="0.2154">
        <ele>1535.8</ele>
        <time>2016-07-24T07:50:09Z</time>
      </trkpt>
      <trkpt lat="42.91171" lon="0.21521">
        <ele>1537.6</ele>
        <time>2016-07-24T07:50:29Z</time>
      </trkpt>
      <trkpt lat="42.91164" lon="0.21514">
        <ele>1536.6</ele>
        <time>2016-07-24T07:50:37Z</time>
      </trkpt>
      <trkpt lat="42.91156" lon="0.21508">
        <ele>1537.2</ele>
        <time>2016-07-24T07:50:45Z</time>
      </trkpt>
      <trkpt lat="42.9115" lon="0.21502">
        <ele>1537</ele>
        <time>2016-07-24T07:50:52Z</time>
      </trkpt>
      <trkpt lat="42.91143" lon="0.21495">
        <ele>1537.4</ele>
        <time>2016-07-24T07:51:00Z</time>
      </trkpt>
      <trkpt lat="42.91137" lon="0.21487">
        <ele>1539</ele>
        <time>2016-07-24T07:51:10Z</time>
      </trkpt>
      <trkpt lat="42.91136" lon="0.21486">
        <ele>1539.2</ele>
        <time>2016-07-24T07:51:11Z</time>
      </trkpt>
      <trkpt lat="42.91122" lon="0.21478">
        <ele>1543.9</ele>
        <time>2016-07-24T07:51:32Z</time>
      </trkpt>
      <trkpt lat="42.91115" lon="0.21483">
        <ele>1543.6</ele>
        <time>2016-07-24T07:51:44Z</time>
      </trkpt>
      <trkpt lat="42.91107" lon="0.2149">
        <ele>1542</ele>
        <time>2016-07-24T07:51:53Z</time>
      </trkpt>
      <trkpt lat="42.91099" lon="0.21493">
        <ele>1542.5</ele>
        <time>2016-07-24T07:52:00Z</time>
      </trkpt>
      <trkpt lat="42.91094" lon="0.21502">
        <ele>1541.5</ele>
        <time>2016-07-24T07:52:10Z</time>
      </trkpt>
      <trkpt lat="42.91091" lon="0.21513">
        <ele>1539.7</ele>
        <time>2016-07-24T07:52:18Z</time>
      </trkpt>
      <trkpt lat="42.91091" lon="0.21514">
        <ele>1538.8</ele>
        <time>2016-07-24T07:52:19Z</time>
      </trkpt>
      <trkpt lat="42.91082" lon="0.21532">
        <ele>1534.3</ele>
        <time>2016-07-24T07:52:33Z</time>
      </trkpt>
      <trkpt lat="42.91074" lon="0.21532">
        <ele>1534.4</ele>
        <time>2016-07-24T07:52:40Z</time>
      </trkpt>
      <trkpt lat="42.91065" lon="0.21531">
        <ele>1535.3</ele>
        <time>2016-07-24T07:52:48Z</time>
      </trkpt>
      <trkpt lat="42.91057" lon="0.21532">
        <ele>1536.6</ele>
        <time>2016-07-24T07:52:59Z</time>
      </trkpt>
      <trkpt lat="42.91048" lon="0.2153">
        <ele>1538.9</ele>
        <time>2016-07-24T07:53:14Z</time>
      </trkpt>
      <trkpt lat="42.9104" lon="0.21526">
        <ele>1540.5</ele>
        <time>2016-07-24T07:53:23Z</time>
      </trkpt>
      <trkpt lat="42.91039" lon="0.21526">
        <ele>1540.6</ele>
        <time>2016-07-24T07:53:24Z</time>
      </trkpt>
      <trkpt lat="42.91025" lon="0.21515">
        <ele>1541.3</ele>
        <time>2016-07-24T07:53:47Z</time>
      </trkpt>
      <trkpt lat="42.9102" lon="0.21506">
        <ele>1543</ele>
        <time>2016-07-24T07:54:00Z</time>
      </trkpt>
      <trkpt lat="42.91012" lon="0.21503">
        <ele>1544.4</ele>
        <time>2016-07-24T07:54:11Z</time>
      </trkpt>
      <trkpt lat="42.91005" lon="0.21495">
        <ele>1545.1</ele>
        <time>2016-07-24T07:54:21Z</time>
      </trkpt>
      <trkpt lat="42.90999" lon="0.21488">
        <ele>1545.8</ele>
        <time>2016-07-24T07:54:32Z</time>
      </trkpt>
      <trkpt lat="42.90998" lon="0.21487">
        <ele>1546.1</ele>
        <time>2016-07-24T07:54:33Z</time>
      </trkpt>
      <trkpt lat="42.90983" lon="0.2148">
        <ele>1546.5</ele>
        <time>2016-07-24T07:54:55Z</time>
      </trkpt>
      <trkpt lat="42.90975" lon="0.21476">
        <ele>1547.4</ele>
        <time>2016-07-24T07:55:04Z</time>
      </trkpt>
      <trkpt lat="42.90968" lon="0.21471">
        <ele>1549</ele>
        <time>2016-07-24T07:55:14Z</time>
      </trkpt>
      <trkpt lat="42.9096" lon="0.21465">
        <ele>1550.3</ele>
        <time>2016-07-24T07:55:24Z</time>
      </trkpt>
      <trkpt lat="42.90953" lon="0.21458">
        <ele>1551.3</ele>
        <time>2016-07-24T07:55:33Z</time>
      </trkpt>
      <trkpt lat="42.90952" lon="0.21457">
        <ele>1551.1</ele>
        <time>2016-07-24T07:55:34Z</time>
      </trkpt>
      <trkpt lat="42.90938" lon="0.21447">
        <ele>1554.3</ele>
        <time>2016-07-24T07:56:08Z</time>
      </trkpt>
      <trkpt lat="42.90929" lon="0.21444">
        <ele>1554.1</ele>
        <time>2016-07-24T07:56:23Z</time>
      </trkpt>
      <trkpt lat="42.90921" lon="0.21441">
        <ele>1556.4</ele>
        <time>2016-07-24T07:56:34Z</time>
      </trkpt>
      <trkpt lat="42.90914" lon="0.21436">
        <ele>1555.5</ele>
        <time>2016-07-24T07:56:46Z</time>
      </trkpt>
      <trkpt lat="42.90913" lon="0.21435">
        <ele>1555.2</ele>
        <time>2016-07-24T07:56:47Z</time>
      </trkpt>
      <trkpt lat="42.909" lon="0.21422">
        <ele>1556.1</ele>
        <time>2016-07-24T07:57:11Z</time>
      </trkpt>
      <trkpt lat="42.90894" lon="0.21413">
        <ele>1555.4</ele>
        <time>2016-07-24T07:57:23Z</time>
      </trkpt>
      <trkpt lat="42.90888" lon="0.21405">
        <ele>1556.2</ele>
        <time>2016-07-24T07:57:32Z</time>
      </trkpt>
      <trkpt lat="42.90881" lon="0.21398">
        <ele>1556.9</ele>
        <time>2016-07-24T07:57:43Z</time>
      </trkpt>
      <trkpt lat="42.90874" lon="0.2139">
        <ele>1558.1</ele>
        <time>2016-07-24T07:57:52Z</time>
      </trkpt>
      <trkpt lat="42.90874" lon="0.21389">
        <ele>1558.1</ele>
        <time>2016-07-24T07:57:53Z</time>
      </trkpt>
      <trkpt lat="42.90861" lon="0.21375">
        <ele>1560</ele>
        <time>2016-07-24T07:58:11Z</time>
      </trkpt>
      <trkpt lat="42.90855" lon="0.21367">
        <ele>1561.3</ele>
        <time>2016-07-24T07:58:22Z</time>
      </trkpt>
      <trkpt lat="42.90848" lon="0.21359">
        <ele>1561.8</ele>
        <time>2016-07-24T07:58:31Z</time>
      </trkpt>
      <trkpt lat="42.90842" lon="0.21352">
        <ele>1561.8</ele>
        <time>2016-07-24T07:58:39Z</time>
      </trkpt>
      <trkpt lat="42.90835" lon="0.21344">
        <ele>1563.4</ele>
        <time>2016-07-24T07:58:48Z</time>
      </trkpt>
      <trkpt lat="42.90829" lon="0.21337">
        <ele>1565.7</ele>
        <time>2016-07-24T07:58:57Z</time>
      </trkpt>
      <trkpt lat="42.90828" lon="0.21336">
        <ele>1565.3</ele>
        <time>2016-07-24T07:58:58Z</time>
      </trkpt>
      <trkpt lat="42.90817" lon="0.21319">
        <ele>1565.4</ele>
        <time>2016-07-24T07:59:16Z</time>
      </trkpt>
      <trkpt lat="42.9081" lon="0.21313">
        <ele>1566.6</ele>
        <time>2016-07-24T07:59:24Z</time>
      </trkpt>
      <trkpt lat="42.90803" lon="0.21306">
        <ele>1567.4</ele>
        <time>2016-07-24T07:59:34Z</time>
      </trkpt>
      <trkpt lat="42.90795" lon="0.21303">
        <ele>1567.2</ele>
        <time>2016-07-24T07:59:43Z</time>
      </trkpt>
      <trkpt lat="42.90787" lon="0.21298">
        <ele>1566.6</ele>
        <time>2016-07-24T07:59:52Z</time>
      </trkpt>
      <trkpt lat="42.90779" lon="0.21293">
        <ele>1566.4</ele>
        <time>2016-07-24T08:00:01Z</time>
      </trkpt>
      <trkpt lat="42.90779" lon="0.21292">
        <ele>1566.6</ele>
        <time>2016-07-24T08:00:02Z</time>
      </trkpt>
      <trkpt lat="42.90765" lon="0.2128">
        <ele>1568</ele>
        <time>2016-07-24T08:00:26Z</time>
      </trkpt>
      <trkpt lat="42.9076" lon="0.2127">
        <ele>1569.1</ele>
        <time>2016-07-24T08:00:37Z</time>
      </trkpt>
      <trkpt lat="42.90758" lon="0.21258">
        <ele>1569.3</ele>
        <time>2016-07-24T08:00:48Z</time>
      </trkpt>
      <trkpt lat="42.90754" lon="0.21248">
        <ele>1569.5</ele>
        <time>2016-07-24T08:00:59Z</time>
      </trkpt>
      <trkpt lat="42.90751" lon="0.21236">
        <ele>1570</ele>
        <time>2016-07-24T08:01:09Z</time>
      </trkpt>
      <trkpt lat="42.90751" lon="0.21235">
        <ele>1569.9</ele>
        <time>2016-07-24T08:01:10Z</time>
      </trkpt>
      <trkpt lat="42.90741" lon="0.21218">
        <ele>1572.1</ele>
        <time>2016-07-24T08:01:30Z</time>
      </trkpt>
      <trkpt lat="42.90737" lon="0.21208">
        <ele>1573.4</ele>
        <time>2016-07-24T08:01:39Z</time>
      </trkpt>
      <trkpt lat="42.9073" lon="0.212">
        <ele>1573.5</ele>
        <time>2016-07-24T08:01:52Z</time>
      </trkpt>
      <trkpt lat="42.90727" lon="0.21189">
        <ele>1573.7</ele>
        <time>2016-07-24T08:02:01Z</time>
      </trkpt>
      <trkpt lat="42.90722" lon="0.21179">
        <ele>1575.2</ele>
        <time>2016-07-24T08:02:10Z</time>
      </trkpt>
      <trkpt lat="42.90719" lon="0.21169">
        <ele>1574.2</ele>
        <time>2016-07-24T08:02:21Z</time>
      </trkpt>
      <trkpt lat="42.90718" lon="0.21167">
        <ele>1574.2</ele>
        <time>2016-07-24T08:02:22Z</time>
      </trkpt>
      <trkpt lat="42.90707" lon="0.2115">
        <ele>1576.2</ele>
        <time>2016-07-24T08:03:12Z</time>
      </trkpt>
      <trkpt lat="42.907" lon="0.21143">
        <ele>1579.2</ele>
        <time>2016-07-24T08:03:23Z</time>
      </trkpt>
      <trkpt lat="42.907" lon="0.21142">
        <ele>1579.1</ele>
        <time>2016-07-24T08:03:24Z</time>
      </trkpt>
      <trkpt lat="42.90687" lon="0.21127">
        <ele>1584.9</ele>
        <time>2016-07-24T08:03:52Z</time>
      </trkpt>
      <trkpt lat="42.90678" lon="0.21127">
        <ele>1585.7</ele>
        <time>2016-07-24T08:04:05Z</time>
      </trkpt>
      <trkpt lat="42.9067" lon="0.21127">
        <ele>1586.4</ele>
        <time>2016-07-24T08:04:18Z</time>
      </trkpt>
      <trkpt lat="42.90661" lon="0.21128">
        <ele>1588.3</ele>
        <time>2016-07-24T08:04:29Z</time>
      </trkpt>
      <trkpt lat="42.9066" lon="0.21128">
        <ele>1588.2</ele>
        <time>2016-07-24T08:04:30Z</time>
      </trkpt>
      <trkpt lat="42.90644" lon="0.21127">
        <ele>1591.8</ele>
        <time>2016-07-24T08:04:48Z</time>
      </trkpt>
      <trkpt lat="42.90636" lon="0.21127">
        <ele>1592.2</ele>
        <time>2016-07-24T08:04:58Z</time>
      </trkpt>
      <trkpt lat="42.90627" lon="0.21125">
        <ele>1593.4</ele>
        <time>2016-07-24T08:05:09Z</time>
      </trkpt>
      <trkpt lat="42.90618" lon="0.21122">
        <ele>1595.8</ele>
        <time>2016-07-24T08:05:21Z</time>
      </trkpt>
      <trkpt lat="42.9061" lon="0.21117">
        <ele>1595.8</ele>
        <time>2016-07-24T08:05:32Z</time>
      </trkpt>
      <trkpt lat="42.9061" lon="0.21116">
        <ele>1595.9</ele>
        <time>2016-07-24T08:05:33Z</time>
      </trkpt>
      <trkpt lat="42.90597" lon="0.21104">
        <ele>1599.3</ele>
        <time>2016-07-24T08:05:58Z</time>
      </trkpt>
      <trkpt lat="42.90588" lon="0.211">
        <ele>1601.6</ele>
        <time>2016-07-24T08:06:14Z</time>
      </trkpt>
      <trkpt lat="42.9058" lon="0.21096">
        <ele>1604.2</ele>
        <time>2016-07-24T08:06:28Z</time>
      </trkpt>
      <trkpt lat="42.90572" lon="0.21093">
        <ele>1606.8</ele>
        <time>2016-07-24T08:06:42Z</time>
      </trkpt>
      <trkpt lat="42.90571" lon="0.21093">
        <ele>1606.9</ele>
        <time>2016-07-24T08:06:43Z</time>
      </trkpt>
      <trkpt lat="42.90557" lon="0.21084">
        <ele>1609.2</ele>
        <time>2016-07-24T08:07:04Z</time>
      </trkpt>
      <trkpt lat="42.90548" lon="0.21084">
        <ele>1611</ele>
        <time>2016-07-24T08:07:16Z</time>
      </trkpt>
      <trkpt lat="42.9054" lon="0.21088">
        <ele>1611.3</ele>
        <time>2016-07-24T08:07:27Z</time>
      </trkpt>
      <trkpt lat="42.90532" lon="0.21087">
        <ele>1614.7</ele>
        <time>2016-07-24T08:07:39Z</time>
      </trkpt>
      <trkpt lat="42.90529" lon="0.21075">
        <ele>1617.5</ele>
        <time>2016-07-24T08:07:56Z</time>
      </trkpt>
      <trkpt lat="42.90529" lon="0.21074">
        <ele>1617.8</ele>
        <time>2016-07-24T08:07:57Z</time>
      </trkpt>
      <trkpt lat="42.90532" lon="0.21051">
        <ele>1622.4</ele>
        <time>2016-07-24T08:08:23Z</time>
      </trkpt>
      <trkpt lat="42.90535" lon="0.2104">
        <ele>1622.8</ele>
        <time>2016-07-24T08:08:37Z</time>
      </trkpt>
      <trkpt lat="42.90538" lon="0.2103">
        <ele>1624.9</ele>
        <time>2016-07-24T08:08:50Z</time>
      </trkpt>
      <trkpt lat="42.90538" lon="0.21018">
        <ele>1627.9</ele>
        <time>2016-07-24T08:09:03Z</time>
      </trkpt>
      <trkpt lat="42.90538" lon="0.21017">
        <ele>1628.2</ele>
        <time>2016-07-24T08:09:04Z</time>
      </trkpt>
      <trkpt lat="42.90542" lon="0.20996">
        <ele>1632.5</ele>
        <time>2016-07-24T08:09:27Z</time>
      </trkpt>
      <trkpt lat="42.90546" lon="0.20985">
        <ele>1633.2</ele>
        <time>2016-07-24T08:09:41Z</time>
      </trkpt>
      <trkpt lat="42.90548" lon="0.20973">
        <ele>1636.3</ele>
        <time>2016-07-24T08:09:56Z</time>
      </trkpt>
      <trkpt lat="42.90547" lon="0.20962">
        <ele>1638.5</ele>
        <time>2016-07-24T08:10:13Z</time>
      </trkpt>
      <trkpt lat="42.90547" lon="0.20961">
        <ele>1638.5</ele>
        <time>2016-07-24T08:10:14Z</time>
      </trkpt>
      <trkpt lat="42.90554" lon="0.2094">
        <ele>1643.3</ele>
        <time>2016-07-24T08:10:39Z</time>
      </trkpt>
      <trkpt lat="42.90559" lon="0.20931">
        <ele>1645.1</ele>
        <time>2016-07-24T08:10:54Z</time>
      </trkpt>
      <trkpt lat="42.90562" lon="0.20919">
        <ele>1649.6</ele>
        <time>2016-07-24T08:11:14Z</time>
      </trkpt>
      <trkpt lat="42.90562" lon="0.20919">
        <ele>1650</ele>
        <time>2016-07-24T08:11:15Z</time>
      </trkpt>
      <trkpt lat="42.90549" lon="0.20909">
        <ele>1656.4</ele>
        <time>2016-07-24T08:11:58Z</time>
      </trkpt>
      <trkpt lat="42.9054" lon="0.2091">
        <ele>1660.3</ele>
        <time>2016-07-24T08:12:17Z</time>
      </trkpt>
      <trkpt lat="42.9054" lon="0.2091">
        <ele>1660.2</ele>
        <time>2016-07-24T08:12:18Z</time>
      </trkpt>
      <trkpt lat="42.90524" lon="0.20915">
        <ele>1668</ele>
        <time>2016-07-24T08:12:57Z</time>
      </trkpt>
      <trkpt lat="42.90516" lon="0.20919">
        <ele>1671.7</ele>
        <time>2016-07-24T08:13:21Z</time>
      </trkpt>
      <trkpt lat="42.90516" lon="0.20919">
        <ele>1671.7</ele>
        <time>2016-07-24T08:13:22Z</time>
      </trkpt>
      <trkpt lat="42.90506" lon="0.20938">
        <ele>1680.1</ele>
        <time>2016-07-24T08:14:09Z</time>
      </trkpt>
      <trkpt lat="42.90499" lon="0.20944">
        <ele>1681.7</ele>
        <time>2016-07-24T08:14:24Z</time>
      </trkpt>
      <trkpt lat="42.90499" lon="0.20945">
        <ele>1682.2</ele>
        <time>2016-07-24T08:14:25Z</time>
      </trkpt>
      <trkpt lat="42.90485" lon="0.20959">
        <ele>1686.8</ele>
        <time>2016-07-24T08:18:43Z</time>
      </trkpt>
      <trkpt lat="42.90485" lon="0.2096">
        <ele>1686.8</ele>
        <time>2016-07-24T08:18:44Z</time>
      </trkpt>
      <trkpt lat="42.9047" lon="0.20949">
        <ele>1696</ele>
        <time>2016-07-24T08:19:43Z</time>
      </trkpt>
      <trkpt lat="42.90462" lon="0.20952">
        <ele>1699.9</ele>
        <time>2016-07-24T08:20:05Z</time>
      </trkpt>
      <trkpt lat="42.90461" lon="0.20952">
        <ele>1700.1</ele>
        <time>2016-07-24T08:20:06Z</time>
      </trkpt>
      <trkpt lat="42.9045" lon="0.20963">
        <ele>1710.1</ele>
        <time>2016-07-24T08:20:59Z</time>
      </trkpt>
      <trkpt lat="42.90443" lon="0.20955">
        <ele>1709.3</ele>
        <time>2016-07-24T08:21:43Z</time>
      </trkpt>
      <trkpt lat="42.90443" lon="0.20955">
        <ele>1709.1</ele>
        <time>2016-07-24T08:21:44Z</time>
      </trkpt>
      <trkpt lat="42.90426" lon="0.20948">
        <ele>1711.9</ele>
        <time>2016-07-24T08:22:13Z</time>
      </trkpt>
      <trkpt lat="42.90418" lon="0.20943">
        <ele>1714.5</ele>
        <time>2016-07-24T08:22:28Z</time>
      </trkpt>
      <trkpt lat="42.9041" lon="0.20939">
        <ele>1716.6</ele>
        <time>2016-07-24T08:22:40Z</time>
      </trkpt>
      <trkpt lat="42.90402" lon="0.20934">
        <ele>1718.9</ele>
        <time>2016-07-24T08:22:53Z</time>
      </trkpt>
      <trkpt lat="42.90401" lon="0.20933">
        <ele>1719.1</ele>
        <time>2016-07-24T08:22:54Z</time>
      </trkpt>
      <trkpt lat="42.90387" lon="0.20922">
        <ele>1722.9</ele>
        <time>2016-07-24T08:23:23Z</time>
      </trkpt>
      <trkpt lat="42.90381" lon="0.20913">
        <ele>1725.1</ele>
        <time>2016-07-24T08:23:42Z</time>
      </trkpt>
      <trkpt lat="42.90372" lon="0.2091">
        <ele>1728.3</ele>
        <time>2016-07-24T08:23:59Z</time>
      </trkpt>
      <trkpt lat="42.90372" lon="0.2091">
        <ele>1728.5</ele>
        <time>2016-07-24T08:24:00Z</time>
      </trkpt>
      <trkpt lat="42.90358" lon="0.20896">
        <ele>1731.6</ele>
        <time>2016-07-24T08:24:34Z</time>
      </trkpt>
      <trkpt lat="42.9035" lon="0.20891">
        <ele>1733.9</ele>
        <time>2016-07-24T08:24:52Z</time>
      </trkpt>
      <trkpt lat="42.90342" lon="0.20886">
        <ele>1736.9</ele>
        <time>2016-07-24T08:25:08Z</time>
      </trkpt>
      <trkpt lat="42.90341" lon="0.20886">
        <ele>1737.2</ele>
        <time>2016-07-24T08:25:09Z</time>
      </trkpt>
      <trkpt lat="42.90325" lon="0.2088">
        <ele>1740.7</ele>
        <time>2016-07-24T08:25:42Z</time>
      </trkpt>
      <trkpt lat="42.90318" lon="0.20873">
        <ele>1740.8</ele>
        <time>2016-07-24T08:26:03Z</time>
      </trkpt>
      <trkpt lat="42.90311" lon="0.20866">
        <ele>1740.5</ele>
        <time>2016-07-24T08:26:18Z</time>
      </trkpt>
      <trkpt lat="42.9031" lon="0.20866">
        <ele>1740.5</ele>
        <time>2016-07-24T08:26:19Z</time>
      </trkpt>
      <trkpt lat="42.90295" lon="0.2086">
        <ele>1740.4</ele>
        <time>2016-07-24T08:27:44Z</time>
      </trkpt>
      <trkpt lat="42.90295" lon="0.20861">
        <ele>1740.3</ele>
        <time>2016-07-24T08:27:45Z</time>
      </trkpt>
      <trkpt lat="42.90281" lon="0.20851">
        <ele>1745.2</ele>
        <time>2016-07-24T08:28:25Z</time>
      </trkpt>
      <trkpt lat="42.90275" lon="0.20841">
        <ele>1749.8</ele>
        <time>2016-07-24T08:28:51Z</time>
      </trkpt>
      <trkpt lat="42.90275" lon="0.20842">
        <ele>1750.1</ele>
        <time>2016-07-24T08:28:52Z</time>
      </trkpt>
      <trkpt lat="42.90258" lon="0.20835">
        <ele>1761.4</ele>
        <time>2016-07-24T08:29:49Z</time>
      </trkpt>
      <trkpt lat="42.9025" lon="0.20838">
        <ele>1765.9</ele>
        <time>2016-07-24T08:30:09Z</time>
      </trkpt>
      <trkpt lat="42.9025" lon="0.20839">
        <ele>1766.1</ele>
        <time>2016-07-24T08:30:10Z</time>
      </trkpt>
      <trkpt lat="42.90233" lon="0.20842">
        <ele>1769</ele>
        <time>2016-07-24T08:30:35Z</time>
      </trkpt>
      <trkpt lat="42.90225" lon="0.2084">
        <ele>1772.4</ele>
        <time>2016-07-24T08:30:57Z</time>
      </trkpt>
      <trkpt lat="42.90216" lon="0.20836">
        <ele>1778.1</ele>
        <time>2016-07-24T08:31:26Z</time>
      </trkpt>
      <trkpt lat="42.90216" lon="0.20836">
        <ele>1778.1</ele>
        <time>2016-07-24T08:31:27Z</time>
      </trkpt>
      <trkpt lat="42.90214" lon="0.20824">
        <ele>1779.4</ele>
        <time>2016-07-24T08:33:19Z</time>
      </trkpt>
      <trkpt lat="42.90207" lon="0.20805">
        <ele>1786.5</ele>
        <time>2016-07-24T08:33:47Z</time>
      </trkpt>
      <trkpt lat="42.902" lon="0.20797">
        <ele>1788.9</ele>
        <time>2016-07-24T08:34:04Z</time>
      </trkpt>
      <trkpt lat="42.90191" lon="0.20797">
        <ele>1792.3</ele>
        <time>2016-07-24T08:34:20Z</time>
      </trkpt>
      <trkpt lat="42.90191" lon="0.20797">
        <ele>1792.5</ele>
        <time>2016-07-24T08:34:21Z</time>
      </trkpt>
      <trkpt lat="42.90174" lon="0.20789">
        <ele>1798.3</ele>
        <time>2016-07-24T08:34:54Z</time>
      </trkpt>
      <trkpt lat="42.90171" lon="0.20778">
        <ele>1802.2</ele>
        <time>2016-07-24T08:35:13Z</time>
      </trkpt>
      <trkpt lat="42.90168" lon="0.20767">
        <ele>1804.2</ele>
        <time>2016-07-24T08:35:30Z</time>
      </trkpt>
      <trkpt lat="42.90167" lon="0.20767">
        <ele>1804.7</ele>
        <time>2016-07-24T08:35:31Z</time>
      </trkpt>
      <trkpt lat="42.90178" lon="0.20749">
        <ele>1812.3</ele>
        <time>2016-07-24T08:36:18Z</time>
      </trkpt>
      <trkpt lat="42.90173" lon="0.20739">
        <ele>1817.8</ele>
        <time>2016-07-24T08:36:47Z</time>
      </trkpt>
      <trkpt lat="42.90173" lon="0.20738">
        <ele>1817.7</ele>
        <time>2016-07-24T08:36:48Z</time>
      </trkpt>
      <trkpt lat="42.90159" lon="0.20725">
        <ele>1824.4</ele>
        <time>2016-07-24T08:37:19Z</time>
      </trkpt>
      <trkpt lat="42.90157" lon="0.20714">
        <ele>1825.6</ele>
        <time>2016-07-24T08:37:31Z</time>
      </trkpt>
      <trkpt lat="42.90157" lon="0.20701">
        <ele>1828</ele>
        <time>2016-07-24T08:38:02Z</time>
      </trkpt>
      <trkpt lat="42.90157" lon="0.20701">
        <ele>1827.8</ele>
        <time>2016-07-24T08:38:03Z</time>
      </trkpt>
      <trkpt lat="42.90156" lon="0.20699">
        <ele>1850.2</ele>
        <time>2016-07-24T08:39:54Z</time>
      </trkpt>
      <trkpt lat="42.90156" lon="0.20699">
        <ele>1850.1</ele>
        <time>2016-07-24T08:39:55Z</time>
      </trkpt>
      <trkpt lat="42.90151" lon="0.20688">
        <ele>1852</ele>
        <time>2016-07-24T08:46:36Z</time>
      </trkpt>
      <trkpt lat="42.90144" lon="0.20667">
        <ele>1855.4</ele>
        <time>2016-07-24T08:47:05Z</time>
      </trkpt>
      <trkpt lat="42.90139" lon="0.20657">
        <ele>1858.9</ele>
        <time>2016-07-24T08:47:25Z</time>
      </trkpt>
      <trkpt lat="42.90133" lon="0.20647">
        <ele>1859.9</ele>
        <time>2016-07-24T08:47:39Z</time>
      </trkpt>
      <trkpt lat="42.90133" lon="0.20647">
        <ele>1860.2</ele>
        <time>2016-07-24T08:47:40Z</time>
      </trkpt>
      <trkpt lat="42.90124" lon="0.20627">
        <ele>1864.9</ele>
        <time>2016-07-24T08:48:08Z</time>
      </trkpt>
      <trkpt lat="42.90119" lon="0.20618">
        <ele>1866.2</ele>
        <time>2016-07-24T08:48:23Z</time>
      </trkpt>
      <trkpt lat="42.90114" lon="0.20607">
        <ele>1869.4</ele>
        <time>2016-07-24T08:48:39Z</time>
      </trkpt>
      <trkpt lat="42.90109" lon="0.20597">
        <ele>1871.5</ele>
        <time>2016-07-24T08:48:54Z</time>
      </trkpt>
      <trkpt lat="42.90109" lon="0.20597">
        <ele>1871.2</ele>
        <time>2016-07-24T08:48:55Z</time>
      </trkpt>
      <trkpt lat="42.90102" lon="0.20576">
        <ele>1875.2</ele>
        <time>2016-07-24T08:49:23Z</time>
      </trkpt>
      <trkpt lat="42.90097" lon="0.20565">
        <ele>1879.2</ele>
        <time>2016-07-24T08:49:40Z</time>
      </trkpt>
      <trkpt lat="42.90094" lon="0.20554">
        <ele>1881.2</ele>
        <time>2016-07-24T08:50:00Z</time>
      </trkpt>
      <trkpt lat="42.90094" lon="0.20554">
        <ele>1881.2</ele>
        <time>2016-07-24T08:50:01Z</time>
      </trkpt>
      <trkpt lat="42.90083" lon="0.20535">
        <ele>1886.5</ele>
        <time>2016-07-24T08:50:37Z</time>
      </trkpt>
      <trkpt lat="42.90079" lon="0.20525">
        <ele>1889.5</ele>
        <time>2016-07-24T08:50:51Z</time>
      </trkpt>
      <trkpt lat="42.90075" lon="0.20514">
        <ele>1892.9</ele>
        <time>2016-07-24T08:51:07Z</time>
      </trkpt>
      <trkpt lat="42.90075" lon="0.20514">
        <ele>1893</ele>
        <time>2016-07-24T08:51:08Z</time>
      </trkpt>
      <trkpt lat="42.90066" lon="0.20495">
        <ele>1898.5</ele>
        <time>2016-07-24T08:51:44Z</time>
      </trkpt>
      <trkpt lat="42.9006" lon="0.20486">
        <ele>1901.2</ele>
        <time>2016-07-24T08:52:01Z</time>
      </trkpt>
      <trkpt lat="42.90053" lon="0.20478">
        <ele>1902.4</ele>
        <time>2016-07-24T08:52:16Z</time>
      </trkpt>
      <trkpt lat="42.90053" lon="0.20477">
        <ele>1902.5</ele>
        <time>2016-07-24T08:52:17Z</time>
      </trkpt>
      <trkpt lat="42.90042" lon="0.2046">
        <ele>1906.4</ele>
        <time>2016-07-24T08:52:42Z</time>
      </trkpt>
      <trkpt lat="42.90037" lon="0.20451">
        <ele>1908.3</ele>
        <time>2016-07-24T08:52:55Z</time>
      </trkpt>
      <trkpt lat="42.90033" lon="0.20441">
        <ele>1910</ele>
        <time>2016-07-24T08:53:08Z</time>
      </trkpt>
      <trkpt lat="42.90025" lon="0.20436">
        <ele>1912.1</ele>
        <time>2016-07-24T08:53:22Z</time>
      </trkpt>
      <trkpt lat="42.90024" lon="0.20436">
        <ele>1912.4</ele>
        <time>2016-07-24T08:53:23Z</time>
      </trkpt>
      <trkpt lat="42.90008" lon="0.20433">
        <ele>1917.5</ele>
        <time>2016-07-24T08:53:51Z</time>
      </trkpt>
      <trkpt lat="42.89999" lon="0.20433">
        <ele>1919.9</ele>
        <time>2016-07-24T08:54:04Z</time>
      </trkpt>
      <trkpt lat="42.89992" lon="0.20426">
        <ele>1921.5</ele>
        <time>2016-07-24T08:54:19Z</time>
      </trkpt>
      <trkpt lat="42.89986" lon="0.20418">
        <ele>1924.2</ele>
        <time>2016-07-24T08:54:33Z</time>
      </trkpt>
      <trkpt lat="42.89985" lon="0.20418">
        <ele>1924.2</ele>
        <time>2016-07-24T08:54:34Z</time>
      </trkpt>
      <trkpt lat="42.89974" lon="0.20401">
        <ele>1927.2</ele>
        <time>2016-07-24T08:55:02Z</time>
      </trkpt>
      <trkpt lat="42.89971" lon="0.2039">
        <ele>1929.8</ele>
        <time>2016-07-24T08:55:16Z</time>
      </trkpt>
      <trkpt lat="42.89968" lon="0.20378">
        <ele>1932.1</ele>
        <time>2016-07-24T08:55:32Z</time>
      </trkpt>
      <trkpt lat="42.89963" lon="0.20368">
        <ele>1933.8</ele>
        <time>2016-07-24T08:55:45Z</time>
      </trkpt>
      <trkpt lat="42.89963" lon="0.20368">
        <ele>1933.7</ele>
        <time>2016-07-24T08:55:46Z</time>
      </trkpt>
      <trkpt lat="42.89955" lon="0.20348">
        <ele>1937</ele>
        <time>2016-07-24T08:56:09Z</time>
      </trkpt>
      <trkpt lat="42.89952" lon="0.20337">
        <ele>1937.4</ele>
        <time>2016-07-24T08:58:04Z</time>
      </trkpt>
      <trkpt lat="42.89952" lon="0.20336">
        <ele>1937.8</ele>
        <time>2016-07-24T08:58:05Z</time>
      </trkpt>
      <trkpt lat="42.89949" lon="0.20314">
        <ele>1941.9</ele>
        <time>2016-07-24T08:58:30Z</time>
      </trkpt>
      <trkpt lat="42.89947" lon="0.20302">
        <ele>1943.3</ele>
        <time>2016-07-24T08:58:47Z</time>
      </trkpt>
      <trkpt lat="42.89946" lon="0.2029">
        <ele>1944.6</ele>
        <time>2016-07-24T08:59:00Z</time>
      </trkpt>
      <trkpt lat="42.89942" lon="0.2028">
        <ele>1944.5</ele>
        <time>2016-07-24T08:59:11Z</time>
      </trkpt>
      <trkpt lat="42.89941" lon="0.20279">
        <ele>1944.8</ele>
        <time>2016-07-24T08:59:12Z</time>
      </trkpt>
      <trkpt lat="42.89928" lon="0.20267">
        <ele>1945.4</ele>
        <time>2016-07-24T08:59:31Z</time>
      </trkpt>
      <trkpt lat="42.89921" lon="0.20261">
        <ele>1946.2</ele>
        <time>2016-07-24T08:59:40Z</time>
      </trkpt>
      <trkpt lat="42.89914" lon="0.20253">
        <ele>1947.3</ele>
        <time>2016-07-24T08:59:50Z</time>
      </trkpt>
      <trkpt lat="42.89909" lon="0.20245">
        <ele>1948.8</ele>
        <time>2016-07-24T09:00:02Z</time>
      </trkpt>
      <trkpt lat="42.89902" lon="0.20238">
        <ele>1948.8</ele>
        <time>2016-07-24T09:00:12Z</time>
      </trkpt>
      <trkpt lat="42.89901" lon="0.20238">
        <ele>1948.6</ele>
        <time>2016-07-24T09:00:13Z</time>
      </trkpt>
      <trkpt lat="42.8989" lon="0.20222">
        <ele>1949.9</ele>
        <time>2016-07-24T09:00:33Z</time>
      </trkpt>
      <trkpt lat="42.89885" lon="0.20212">
        <ele>1950.6</ele>
        <time>2016-07-24T09:00:47Z</time>
      </trkpt>
      <trkpt lat="42.89878" lon="0.20204">
        <ele>1950.2</ele>
        <time>2016-07-24T09:00:58Z</time>
      </trkpt>
      <trkpt lat="42.89872" lon="0.20196">
        <ele>1951.1</ele>
        <time>2016-07-24T09:01:09Z</time>
      </trkpt>
      <trkpt lat="42.89866" lon="0.20188">
        <ele>1952.6</ele>
        <time>2016-07-24T09:01:20Z</time>
      </trkpt>
      <trkpt lat="42.89865" lon="0.20187">
        <ele>1952.4</ele>
        <time>2016-07-24T09:01:21Z</time>
      </trkpt>
      <trkpt lat="42.8986" lon="0.20166">
        <ele>1952.5</ele>
        <time>2016-07-24T09:01:38Z</time>
      </trkpt>
      <trkpt lat="42.89857" lon="0.20154">
        <ele>1954.2</ele>
        <time>2016-07-24T09:01:51Z</time>
      </trkpt>
      <trkpt lat="42.89858" lon="0.20143">
        <ele>1956.5</ele>
        <time>2016-07-24T09:02:03Z</time>
      </trkpt>
      <trkpt lat="42.89858" lon="0.20131">
        <ele>1957.1</ele>
        <time>2016-07-24T09:02:18Z</time>
      </trkpt>
      <trkpt lat="42.89862" lon="0.2012">
        <ele>1961.5</ele>
        <time>2016-07-24T09:02:33Z</time>
      </trkpt>
      <trkpt lat="42.89862" lon="0.2012">
        <ele>1961.7</ele>
        <time>2016-07-24T09:02:34Z</time>
      </trkpt>
      <trkpt lat="42.89871" lon="0.20101">
        <ele>1964.4</ele>
        <time>2016-07-24T09:03:01Z</time>
      </trkpt>
      <trkpt lat="42.89876" lon="0.20091">
        <ele>1966.6</ele>
        <time>2016-07-24T09:03:17Z</time>
      </trkpt>
      <trkpt lat="42.89878" lon="0.20079">
        <ele>1970</ele>
        <time>2016-07-24T09:03:33Z</time>
      </trkpt>
      <trkpt lat="42.8988" lon="0.20068">
        <ele>1973</ele>
        <time>2016-07-24T09:03:52Z</time>
      </trkpt>
      <trkpt lat="42.89881" lon="0.20067">
        <ele>1973.4</ele>
        <time>2016-07-24T09:03:53Z</time>
      </trkpt>
      <trkpt lat="42.89866" lon="0.20064">
        <ele>1979.8</ele>
        <time>2016-07-24T09:04:35Z</time>
      </trkpt>
      <trkpt lat="42.89857" lon="0.20064">
        <ele>1980.9</ele>
        <time>2016-07-24T09:04:50Z</time>
      </trkpt>
      <trkpt lat="42.89849" lon="0.20062">
        <ele>1981.5</ele>
        <time>2016-07-24T09:05:01Z</time>
      </trkpt>
      <trkpt lat="42.89848" lon="0.20062">
        <ele>1981.6</ele>
        <time>2016-07-24T09:05:02Z</time>
      </trkpt>
      <trkpt lat="42.89832" lon="0.20056">
        <ele>1985.1</ele>
        <time>2016-07-24T09:05:45Z</time>
      </trkpt>
      <trkpt lat="42.89823" lon="0.20053">
        <ele>1987.5</ele>
        <time>2016-07-24T09:06:00Z</time>
      </trkpt>
      <trkpt lat="42.89815" lon="0.20052">
        <ele>1989.6</ele>
        <time>2016-07-24T09:06:12Z</time>
      </trkpt>
      <trkpt lat="42.89814" lon="0.20051">
        <ele>1989.7</ele>
        <time>2016-07-24T09:06:13Z</time>
      </trkpt>
      <trkpt lat="42.89798" lon="0.20046">
        <ele>1993.3</ele>
        <time>2016-07-24T09:06:36Z</time>
      </trkpt>
      <trkpt lat="42.8979" lon="0.20043">
        <ele>1995.1</ele>
        <time>2016-07-24T09:06:47Z</time>
      </trkpt>
      <trkpt lat="42.89782" lon="0.20038">
        <ele>1996.5</ele>
        <time>2016-07-24T09:07:01Z</time>
      </trkpt>
      <trkpt lat="42.89774" lon="0.20033">
        <ele>1999.9</ele>
        <time>2016-07-24T09:07:16Z</time>
      </trkpt>
      <trkpt lat="42.89773" lon="0.20033">
        <ele>2000</ele>
        <time>2016-07-24T09:07:17Z</time>
      </trkpt>
      <trkpt lat="42.89758" lon="0.20023">
        <ele>2004.3</ele>
        <time>2016-07-24T09:07:46Z</time>
      </trkpt>
      <trkpt lat="42.89751" lon="0.20016">
        <ele>2009.1</ele>
        <time>2016-07-24T09:08:04Z</time>
      </trkpt>
      <trkpt lat="42.89743" lon="0.20013">
        <ele>2010.9</ele>
        <time>2016-07-24T09:08:16Z</time>
      </trkpt>
      <trkpt lat="42.89735" lon="0.20009">
        <ele>2011.7</ele>
        <time>2016-07-24T09:08:29Z</time>
      </trkpt>
      <trkpt lat="42.89734" lon="0.20009">
        <ele>2011.8</ele>
        <time>2016-07-24T09:08:30Z</time>
      </trkpt>
      <trkpt lat="42.89721" lon="0.2002">
        <ele>2011</ele>
        <time>2016-07-24T09:08:57Z</time>
      </trkpt>
      <trkpt lat="42.89712" lon="0.20018">
        <ele>2012.5</ele>
        <time>2016-07-24T09:09:08Z</time>
      </trkpt>
      <trkpt lat="42.89704" lon="0.20018">
        <ele>2013.5</ele>
        <time>2016-07-24T09:09:19Z</time>
      </trkpt>
      <trkpt lat="42.89695" lon="0.20022">
        <ele>2014.9</ele>
        <time>2016-07-24T09:09:28Z</time>
      </trkpt>
      <trkpt lat="42.89687" lon="0.20027">
        <ele>2014.6</ele>
        <time>2016-07-24T09:09:36Z</time>
      </trkpt>
      <trkpt lat="42.89686" lon="0.20027">
        <ele>2015</ele>
        <time>2016-07-24T09:09:37Z</time>
      </trkpt>
      <trkpt lat="42.89674" lon="0.20039">
        <ele>2017.1</ele>
        <time>2016-07-24T09:09:51Z</time>
      </trkpt>
      <trkpt lat="42.89666" lon="0.20041">
        <ele>2017.5</ele>
        <time>2016-07-24T09:10:00Z</time>
      </trkpt>
      <trkpt lat="42.89661" lon="0.20031">
        <ele>2019.4</ele>
        <time>2016-07-24T09:10:16Z</time>
      </trkpt>
      <trkpt lat="42.8966" lon="0.2002">
        <ele>2021</ele>
        <time>2016-07-24T09:10:28Z</time>
      </trkpt>
      <trkpt lat="42.89658" lon="0.20008">
        <ele>2023.6</ele>
        <time>2016-07-24T09:10:40Z</time>
      </trkpt>
      <trkpt lat="42.89658" lon="0.20008">
        <ele>2024.1</ele>
        <time>2016-07-24T09:10:41Z</time>
      </trkpt>
      <trkpt lat="42.89653" lon="0.19988">
        <ele>2028.4</ele>
        <time>2016-07-24T09:14:27Z</time>
      </trkpt>
      <trkpt lat="42.89653" lon="0.19987">
        <ele>2028.3</ele>
        <time>2016-07-24T09:14:28Z</time>
      </trkpt>
      <trkpt lat="42.89647" lon="0.19966">
        <ele>2028.7</ele>
        <time>2016-07-24T09:14:48Z</time>
      </trkpt>
      <trkpt lat="42.89647" lon="0.19955">
        <ele>2029.1</ele>
        <time>2016-07-24T09:14:58Z</time>
      </trkpt>
      <trkpt lat="42.89641" lon="0.19947">
        <ele>2029.7</ele>
        <time>2016-07-24T09:15:06Z</time>
      </trkpt>
      <trkpt lat="42.89636" lon="0.19937">
        <ele>2029.3</ele>
        <time>2016-07-24T09:15:15Z</time>
      </trkpt>
      <trkpt lat="42.89631" lon="0.19927">
        <ele>2028.5</ele>
        <time>2016-07-24T09:15:25Z</time>
      </trkpt>
      <trkpt lat="42.8963" lon="0.19915">
        <ele>2028.5</ele>
        <time>2016-07-24T09:15:40Z</time>
      </trkpt>
      <trkpt lat="42.89629" lon="0.19914">
        <ele>2028.8</ele>
        <time>2016-07-24T09:15:41Z</time>
      </trkpt>
      <trkpt lat="42.89624" lon="0.19892">
        <ele>2028.9</ele>
        <time>2016-07-24T09:16:06Z</time>
      </trkpt>
      <trkpt lat="42.89618" lon="0.19885">
        <ele>2029.4</ele>
        <time>2016-07-24T09:16:16Z</time>
      </trkpt>
      <trkpt lat="42.89614" lon="0.19875">
        <ele>2027.9</ele>
        <time>2016-07-24T09:16:26Z</time>
      </trkpt>
      <trkpt lat="42.89606" lon="0.19869">
        <ele>2027.5</ele>
        <time>2016-07-24T09:16:35Z</time>
      </trkpt>
      <trkpt lat="42.89599" lon="0.19864">
        <ele>2027.1</ele>
        <time>2016-07-24T09:16:45Z</time>
      </trkpt>
      <trkpt lat="42.89598" lon="0.19863">
        <ele>2027.4</ele>
        <time>2016-07-24T09:16:46Z</time>
      </trkpt>
      <trkpt lat="42.89584" lon="0.19858">
        <ele>2029.3</ele>
        <time>2016-07-24T09:16:59Z</time>
      </trkpt>
      <trkpt lat="42.89576" lon="0.19856">
        <ele>2028.9</ele>
        <time>2016-07-24T09:17:07Z</time>
      </trkpt>
      <trkpt lat="42.89569" lon="0.19852">
        <ele>2028.8</ele>
        <time>2016-07-24T09:17:16Z</time>
      </trkpt>
      <trkpt lat="42.8956" lon="0.19847">
        <ele>2029.1</ele>
        <time>2016-07-24T09:17:25Z</time>
      </trkpt>
      <trkpt lat="42.89553" lon="0.19843">
        <ele>2029.9</ele>
        <time>2016-07-24T09:17:35Z</time>
      </trkpt>
      <trkpt lat="42.89545" lon="0.19837">
        <ele>2027.8</ele>
        <time>2016-07-24T09:17:46Z</time>
      </trkpt>
      <trkpt lat="42.89545" lon="0.19837">
        <ele>2027.6</ele>
        <time>2016-07-24T09:17:47Z</time>
      </trkpt>
      <trkpt lat="42.89531" lon="0.19825">
        <ele>2028.6</ele>
        <time>2016-07-24T09:18:06Z</time>
      </trkpt>
      <trkpt lat="42.89523" lon="0.19829">
        <ele>2028.5</ele>
        <time>2016-07-24T09:18:19Z</time>
      </trkpt>
      <trkpt lat="42.89515" lon="0.19826">
        <ele>2028.8</ele>
        <time>2016-07-24T09:18:30Z</time>
      </trkpt>
      <trkpt lat="42.89507" lon="0.19822">
        <ele>2028.5</ele>
        <time>2016-07-24T09:18:39Z</time>
      </trkpt>
      <trkpt lat="42.89499" lon="0.19819">
        <ele>2029.8</ele>
        <time>2016-07-24T09:18:48Z</time>
      </trkpt>
      <trkpt lat="42.89498" lon="0.19819">
        <ele>2030</ele>
        <time>2016-07-24T09:18:49Z</time>
      </trkpt>
      <trkpt lat="42.89487" lon="0.19803">
        <ele>2029</ele>
        <time>2016-07-24T09:19:08Z</time>
      </trkpt>
      <trkpt lat="42.89483" lon="0.19793">
        <ele>2029.7</ele>
        <time>2016-07-24T09:19:17Z</time>
      </trkpt>
      <trkpt lat="42.89479" lon="0.19783">
        <ele>2028.2</ele>
        <time>2016-07-24T09:19:26Z</time>
      </trkpt>
      <trkpt lat="42.89475" lon="0.19773">
        <ele>2029.2</ele>
        <time>2016-07-24T09:19:38Z</time>
      </trkpt>
      <trkpt lat="42.89467" lon="0.19767">
        <ele>2028.2</ele>
        <time>2016-07-24T09:19:48Z</time>
      </trkpt>
      <trkpt lat="42.8946" lon="0.1976">
        <ele>2030.1</ele>
        <time>2016-07-24T09:19:59Z</time>
      </trkpt>
      <trkpt lat="42.8946" lon="0.19759">
        <ele>2030.5</ele>
        <time>2016-07-24T09:20:00Z</time>
      </trkpt>
      <trkpt lat="42.89448" lon="0.19744">
        <ele>2033.4</ele>
        <time>2016-07-24T09:20:22Z</time>
      </trkpt>
      <trkpt lat="42.89441" lon="0.19736">
        <ele>2033.5</ele>
        <time>2016-07-24T09:20:32Z</time>
      </trkpt>
      <trkpt lat="42.89433" lon="0.19732">
        <ele>2034.2</ele>
        <time>2016-07-24T09:20:40Z</time>
      </trkpt>
      <trkpt lat="42.89426" lon="0.19728">
        <ele>2034.3</ele>
        <time>2016-07-24T09:20:47Z</time>
      </trkpt>
      <trkpt lat="42.89419" lon="0.19721">
        <ele>2036.1</ele>
        <time>2016-07-24T09:20:58Z</time>
      </trkpt>
      <trkpt lat="42.8941" lon="0.1972">
        <ele>2037.7</ele>
        <time>2016-07-24T09:21:10Z</time>
      </trkpt>
      <trkpt lat="42.8941" lon="0.1972">
        <ele>2037.8</ele>
        <time>2016-07-24T09:21:11Z</time>
      </trkpt>
      <trkpt lat="42.89394" lon="0.19725">
        <ele>2039.9</ele>
        <time>2016-07-24T09:21:35Z</time>
      </trkpt>
      <trkpt lat="42.89385" lon="0.19726">
        <ele>2042.1</ele>
        <time>2016-07-24T09:21:52Z</time>
      </trkpt>
      <trkpt lat="42.89377" lon="0.19728">
        <ele>2042.9</ele>
        <time>2016-07-24T09:22:07Z</time>
      </trkpt>
      <trkpt lat="42.89368" lon="0.1973">
        <ele>2043</ele>
        <time>2016-07-24T09:22:25Z</time>
      </trkpt>
      <trkpt lat="42.89368" lon="0.1973">
        <ele>2043.1</ele>
        <time>2016-07-24T09:22:26Z</time>
      </trkpt>
      <trkpt lat="42.89351" lon="0.19737">
        <ele>2043.8</ele>
        <time>2016-07-24T09:22:58Z</time>
      </trkpt>
      <trkpt lat="42.89342" lon="0.19737">
        <ele>2042.9</ele>
        <time>2016-07-24T09:25:50Z</time>
      </trkpt>
      <trkpt lat="42.89342" lon="0.19737">
        <ele>2042.8</ele>
        <time>2016-07-24T09:25:51Z</time>
      </trkpt>
      <trkpt lat="42.89328" lon="0.19744">
        <ele>2047</ele>
        <time>2016-07-24T09:26:41Z</time>
      </trkpt>
      <trkpt lat="42.8932" lon="0.19747">
        <ele>2049.9</ele>
        <time>2016-07-24T09:26:59Z</time>
      </trkpt>
      <trkpt lat="42.89319" lon="0.19747">
        <ele>2050</ele>
        <time>2016-07-24T09:27:00Z</time>
      </trkpt>
      <trkpt lat="42.89303" lon="0.19741">
        <ele>2056.5</ele>
        <time>2016-07-24T09:27:28Z</time>
      </trkpt>
      <trkpt lat="42.89296" lon="0.19746">
        <ele>2059</ele>
        <time>2016-07-24T09:27:45Z</time>
      </trkpt>
      <trkpt lat="42.89288" lon="0.19752">
        <ele>2060.9</ele>
        <time>2016-07-24T09:28:00Z</time>
      </trkpt>
      <trkpt lat="42.89288" lon="0.19752">
        <ele>2061.7</ele>
        <time>2016-07-24T09:28:01Z</time>
      </trkpt>
      <trkpt lat="42.89275" lon="0.19767">
        <ele>2061.7</ele>
        <time>2016-07-24T09:28:46Z</time>
      </trkpt>
      <trkpt lat="42.89268" lon="0.19772">
        <ele>2062.4</ele>
        <time>2016-07-24T09:29:44Z</time>
      </trkpt>
      <trkpt lat="42.89267" lon="0.19772">
        <ele>2062.5</ele>
        <time>2016-07-24T09:29:45Z</time>
      </trkpt>
      <trkpt lat="42.89256" lon="0.19789">
        <ele>2063.4</ele>
        <time>2016-07-24T09:30:08Z</time>
      </trkpt>
      <trkpt lat="42.89251" lon="0.19799">
        <ele>2065.3</ele>
        <time>2016-07-24T09:30:18Z</time>
      </trkpt>
      <trkpt lat="42.89247" lon="0.19808">
        <ele>2064.6</ele>
        <time>2016-07-24T09:30:26Z</time>
      </trkpt>
      <trkpt lat="42.89243" lon="0.19819">
        <ele>2064.7</ele>
        <time>2016-07-24T09:30:34Z</time>
      </trkpt>
      <trkpt lat="42.8924" lon="0.1983">
        <ele>2065.2</ele>
        <time>2016-07-24T09:30:43Z</time>
      </trkpt>
      <trkpt lat="42.89242" lon="0.19841">
        <ele>2067.6</ele>
        <time>2016-07-24T09:30:59Z</time>
      </trkpt>
      <trkpt lat="42.89242" lon="0.19842">
        <ele>2067.8</ele>
        <time>2016-07-24T09:31:00Z</time>
      </trkpt>
      <trkpt lat="42.89247" lon="0.19863">
        <ele>2069.6</ele>
        <time>2016-07-24T09:31:32Z</time>
      </trkpt>
      <trkpt lat="42.89254" lon="0.19871">
        <ele>2069.8</ele>
        <time>2016-07-24T09:31:43Z</time>
      </trkpt>
      <trkpt lat="42.89258" lon="0.1988">
        <ele>2072.6</ele>
        <time>2016-07-24T09:31:53Z</time>
      </trkpt>
      <trkpt lat="42.89266" lon="0.19885">
        <ele>2073.6</ele>
        <time>2016-07-24T09:32:01Z</time>
      </trkpt>
      <trkpt lat="42.89266" lon="0.19887">
        <ele>2073.6</ele>
        <time>2016-07-24T09:32:02Z</time>
      </trkpt>
      <trkpt lat="42.89275" lon="0.19905">
        <ele>2073.9</ele>
        <time>2016-07-24T09:32:18Z</time>
      </trkpt>
      <trkpt lat="42.89279" lon="0.19915">
        <ele>2074</ele>
        <time>2016-07-24T09:32:27Z</time>
      </trkpt>
      <trkpt lat="42.8928" lon="0.19927">
        <ele>2076.3</ele>
        <time>2016-07-24T09:32:43Z</time>
      </trkpt>
      <trkpt lat="42.89276" lon="0.19938">
        <ele>2079.3</ele>
        <time>2016-07-24T09:32:59Z</time>
      </trkpt>
      <trkpt lat="42.89277" lon="0.1995">
        <ele>2082.8</ele>
        <time>2016-07-24T09:33:20Z</time>
      </trkpt>
      <trkpt lat="42.89277" lon="0.1995">
        <ele>2082.9</ele>
        <time>2016-07-24T09:33:21Z</time>
      </trkpt>
      <trkpt lat="42.89287" lon="0.19967">
        <ele>2085.3</ele>
        <time>2016-07-24T09:33:50Z</time>
      </trkpt>
      <trkpt lat="42.89292" lon="0.19977">
        <ele>2085.3</ele>
        <time>2016-07-24T09:34:00Z</time>
      </trkpt>
      <trkpt lat="42.89295" lon="0.19988">
        <ele>2086</ele>
        <time>2016-07-24T09:34:13Z</time>
      </trkpt>
      <trkpt lat="42.89289" lon="0.19997">
        <ele>2090.6</ele>
        <time>2016-07-24T09:34:38Z</time>
      </trkpt>
      <trkpt lat="42.89289" lon="0.19997">
        <ele>2090.9</ele>
        <time>2016-07-24T09:34:39Z</time>
      </trkpt>
      <trkpt lat="42.89283" lon="0.20016">
        <ele>2099</ele>
        <time>2016-07-24T09:35:21Z</time>
      </trkpt>
      <trkpt lat="42.89276" lon="0.20023">
        <ele>2101.6</ele>
        <time>2016-07-24T09:35:42Z</time>
      </trkpt>
      <trkpt lat="42.89276" lon="0.20024">
        <ele>2101.7</ele>
        <time>2016-07-24T09:35:43Z</time>
      </trkpt>
      <trkpt lat="42.89272" lon="0.20047">
        <ele>2110.6</ele>
        <time>2016-07-24T09:36:23Z</time>
      </trkpt>
      <trkpt lat="42.89272" lon="0.20059">
        <ele>2112.2</ele>
        <time>2016-07-24T09:36:39Z</time>
      </trkpt>
      <trkpt lat="42.89268" lon="0.20069">
        <ele>2112.7</ele>
        <time>2016-07-24T09:36:53Z</time>
      </trkpt>
      <trkpt lat="42.89267" lon="0.20069">
        <ele>2113.2</ele>
        <time>2016-07-24T09:36:54Z</time>
      </trkpt>
      <trkpt lat="42.89259" lon="0.20075">
        <ele>2114.7</ele>
        <time>2016-07-24T09:39:17Z</time>
      </trkpt>
      <trkpt lat="42.89245" lon="0.20086">
        <ele>2113.1</ele>
        <time>2016-07-24T09:39:50Z</time>
      </trkpt>
      <trkpt lat="42.89237" lon="0.20088">
        <ele>2113.7</ele>
        <time>2016-07-24T09:40:03Z</time>
      </trkpt>
      <trkpt lat="42.89228" lon="0.20085">
        <ele>2114.4</ele>
        <time>2016-07-24T09:40:15Z</time>
      </trkpt>
      <trkpt lat="42.89219" lon="0.20086">
        <ele>2114.5</ele>
        <time>2016-07-24T09:40:26Z</time>
      </trkpt>
      <trkpt lat="42.89219" lon="0.20086">
        <ele>2114.2</ele>
        <time>2016-07-24T09:40:27Z</time>
      </trkpt>
      <trkpt lat="42.89204" lon="0.20096">
        <ele>2113.3</ele>
        <time>2016-07-24T09:40:50Z</time>
      </trkpt>
      <trkpt lat="42.89195" lon="0.20097">
        <ele>2111.7</ele>
        <time>2016-07-24T09:40:59Z</time>
      </trkpt>
      <trkpt lat="42.89187" lon="0.20098">
        <ele>2113</ele>
        <time>2016-07-24T09:41:08Z</time>
      </trkpt>
      <trkpt lat="42.89178" lon="0.20098">
        <ele>2113.9</ele>
        <time>2016-07-24T09:41:18Z</time>
      </trkpt>
      <trkpt lat="42.89169" lon="0.20094">
        <ele>2116.5</ele>
        <time>2016-07-24T09:41:35Z</time>
      </trkpt>
      <trkpt lat="42.89169" lon="0.20094">
        <ele>2116.8</ele>
        <time>2016-07-24T09:41:36Z</time>
      </trkpt>
      <trkpt lat="42.89154" lon="0.20087">
        <ele>2123.1</ele>
        <time>2016-07-24T09:42:19Z</time>
      </trkpt>
      <trkpt lat="42.89145" lon="0.20084">
        <ele>2125.3</ele>
        <time>2016-07-24T09:42:38Z</time>
      </trkpt>
      <trkpt lat="42.89145" lon="0.20084">
        <ele>2125.1</ele>
        <time>2016-07-24T09:42:39Z</time>
      </trkpt>
      <trkpt lat="42.89133" lon="0.201">
        <ele>2132.5</ele>
        <time>2016-07-24T09:43:36Z</time>
      </trkpt>
      <trkpt lat="42.89125" lon="0.20104">
        <ele>2134.2</ele>
        <time>2016-07-24T09:43:50Z</time>
      </trkpt>
      <trkpt lat="42.89124" lon="0.20105">
        <ele>2134.2</ele>
        <time>2016-07-24T09:43:51Z</time>
      </trkpt>
      <trkpt lat="42.89115" lon="0.20122">
        <ele>2140.7</ele>
        <time>2016-07-24T09:44:27Z</time>
      </trkpt>
      <trkpt lat="42.89108" lon="0.20128">
        <ele>2141.9</ele>
        <time>2016-07-24T09:44:44Z</time>
      </trkpt>
      <trkpt lat="42.89102" lon="0.20137">
        <ele>2143.6</ele>
        <time>2016-07-24T09:45:06Z</time>
      </trkpt>
      <trkpt lat="42.89102" lon="0.20138">
        <ele>2143.6</ele>
        <time>2016-07-24T09:45:07Z</time>
      </trkpt>
      <trkpt lat="42.89089" lon="0.20153">
        <ele>2142.6</ele>
        <time>2016-07-24T09:45:41Z</time>
      </trkpt>
      <trkpt lat="42.89081" lon="0.20157">
        <ele>2143.1</ele>
        <time>2016-07-24T09:46:57Z</time>
      </trkpt>
      <trkpt lat="42.8908" lon="0.20157">
        <ele>2143</ele>
        <time>2016-07-24T09:46:58Z</time>
      </trkpt>
      <trkpt lat="42.8907" lon="0.20175">
        <ele>2138.6</ele>
        <time>2016-07-24T09:47:23Z</time>
      </trkpt>
      <trkpt lat="42.89067" lon="0.20185">
        <ele>2137.3</ele>
        <time>2016-07-24T09:47:38Z</time>
      </trkpt>
      <trkpt lat="42.89063" lon="0.20196">
        <ele>2138.6</ele>
        <time>2016-07-24T09:47:52Z</time>
      </trkpt>
      <trkpt lat="42.89056" lon="0.20204">
        <ele>2140.6</ele>
        <time>2016-07-24T09:48:04Z</time>
      </trkpt>
      <trkpt lat="42.89056" lon="0.20205">
        <ele>2140.7</ele>
        <time>2016-07-24T09:48:05Z</time>
      </trkpt>
      <trkpt lat="42.89044" lon="0.20222">
        <ele>2141.3</ele>
        <time>2016-07-24T09:48:42Z</time>
      </trkpt>
      <trkpt lat="42.89039" lon="0.20231">
        <ele>2140.3</ele>
        <time>2016-07-24T09:50:36Z</time>
      </trkpt>
      <trkpt lat="42.89039" lon="0.20232">
        <ele>2140.4</ele>
        <time>2016-07-24T09:50:37Z</time>
      </trkpt>
      <trkpt lat="42.89026" lon="0.20247">
        <ele>2134.4</ele>
        <time>2016-07-24T09:51:22Z</time>
      </trkpt>
      <trkpt lat="42.8902" lon="0.20256">
        <ele>2132.9</ele>
        <time>2016-07-24T09:51:36Z</time>
      </trkpt>
      <trkpt lat="42.89014" lon="0.20264">
        <ele>2130.7</ele>
        <time>2016-07-24T09:51:50Z</time>
      </trkpt>
      <trkpt lat="42.89013" lon="0.20264">
        <ele>2130.1</ele>
        <time>2016-07-24T09:51:51Z</time>
      </trkpt>
      <trkpt lat="42.89001" lon="0.2028">
        <ele>2127.8</ele>
        <time>2016-07-24T09:52:20Z</time>
      </trkpt>
      <trkpt lat="42.88996" lon="0.20289">
        <ele>2126.9</ele>
        <time>2016-07-24T09:52:37Z</time>
      </trkpt>
      <trkpt lat="42.88991" lon="0.20299">
        <ele>2125.7</ele>
        <time>2016-07-24T09:52:47Z</time>
      </trkpt>
      <trkpt lat="42.88985" lon="0.20307">
        <ele>2125.7</ele>
        <time>2016-07-24T09:53:00Z</time>
      </trkpt>
      <trkpt lat="42.88985" lon="0.20308">
        <ele>2125.6</ele>
        <time>2016-07-24T09:53:01Z</time>
      </trkpt>
      <trkpt lat="42.88975" lon="0.20326">
        <ele>2120.7</ele>
        <time>2016-07-24T09:53:26Z</time>
      </trkpt>
      <trkpt lat="42.88969" lon="0.20334">
        <ele>2118.1</ele>
        <time>2016-07-24T09:53:35Z</time>
      </trkpt>
      <trkpt lat="42.88965" lon="0.20345">
        <ele>2115.7</ele>
        <time>2016-07-24T09:53:51Z</time>
      </trkpt>
      <trkpt lat="42.88959" lon="0.20354">
        <ele>2114.5</ele>
        <time>2016-07-24T09:54:05Z</time>
      </trkpt>
      <trkpt lat="42.88959" lon="0.20355">
        <ele>2114.2</ele>
        <time>2016-07-24T09:54:06Z</time>
      </trkpt>
      <trkpt lat="42.88949" lon="0.20374">
        <ele>2109</ele>
        <time>2016-07-24T09:54:36Z</time>
      </trkpt>
      <trkpt lat="42.88943" lon="0.20381">
        <ele>2107.5</ele>
        <time>2016-07-24T09:54:47Z</time>
      </trkpt>
      <trkpt lat="42.88935" lon="0.20381">
        <ele>2103.8</ele>
        <time>2016-07-24T09:55:05Z</time>
      </trkpt>
      <trkpt lat="42.8893" lon="0.20391">
        <ele>2102.1</ele>
        <time>2016-07-24T09:55:17Z</time>
      </trkpt>
      <trkpt lat="42.88929" lon="0.20392">
        <ele>2102.4</ele>
        <time>2016-07-24T09:55:18Z</time>
      </trkpt>
      <trkpt lat="42.88921" lon="0.20411">
        <ele>2101.3</ele>
        <time>2016-07-24T09:55:37Z</time>
      </trkpt>
      <trkpt lat="42.88914" lon="0.20418">
        <ele>2102.2</ele>
        <time>2016-07-24T09:55:47Z</time>
      </trkpt>
      <trkpt lat="42.88908" lon="0.20425">
        <ele>2103.5</ele>
        <time>2016-07-24T09:55:57Z</time>
      </trkpt>
      <trkpt lat="42.88901" lon="0.20432">
        <ele>2102.2</ele>
        <time>2016-07-24T09:57:53Z</time>
      </trkpt>
      <trkpt lat="42.889" lon="0.20433">
        <ele>2102.2</ele>
        <time>2016-07-24T09:57:54Z</time>
      </trkpt>
      <trkpt lat="42.88897" lon="0.20445">
        <ele>2102.8</ele>
        <time>2016-07-24T09:59:13Z</time>
      </trkpt>
      <trkpt lat="42.88898" lon="0.20446">
        <ele>2102.6</ele>
        <time>2016-07-24T09:59:14Z</time>
      </trkpt>
      <trkpt lat="42.88896" lon="0.20469">
        <ele>2101.3</ele>
        <time>2016-07-24T09:59:44Z</time>
      </trkpt>
      <trkpt lat="42.88888" lon="0.20472">
        <ele>2100.3</ele>
        <time>2016-07-24T09:59:57Z</time>
      </trkpt>
      <trkpt lat="42.8888" lon="0.20477">
        <ele>2100</ele>
        <time>2016-07-24T10:00:08Z</time>
      </trkpt>
      <trkpt lat="42.88873" lon="0.20484">
        <ele>2100.2</ele>
        <time>2016-07-24T10:00:19Z</time>
      </trkpt>
      <trkpt lat="42.88872" lon="0.20485">
        <ele>2100.5</ele>
        <time>2016-07-24T10:00:20Z</time>
      </trkpt>
      <trkpt lat="42.8886" lon="0.205">
        <ele>2105.5</ele>
        <time>2016-07-24T10:00:46Z</time>
      </trkpt>
      <trkpt lat="42.88855" lon="0.2051">
        <ele>2107.9</ele>
        <time>2016-07-24T10:01:01Z</time>
      </trkpt>
      <trkpt lat="42.88848" lon="0.20516">
        <ele>2110.3</ele>
        <time>2016-07-24T10:01:20Z</time>
      </trkpt>
      <trkpt lat="42.88847" lon="0.20516">
        <ele>2110.1</ele>
        <time>2016-07-24T10:01:21Z</time>
      </trkpt>
      <trkpt lat="42.88831" lon="0.2052">
        <ele>2110.1</ele>
        <time>2016-07-24T10:02:01Z</time>
      </trkpt>
      <trkpt lat="42.88823" lon="0.20517">
        <ele>2107.8</ele>
        <time>2016-07-24T10:02:11Z</time>
      </trkpt>
      <trkpt lat="42.88814" lon="0.20516">
        <ele>2106.9</ele>
        <time>2016-07-24T10:02:21Z</time>
      </trkpt>
      <trkpt lat="42.88813" lon="0.20517">
        <ele>2106.8</ele>
        <time>2016-07-24T10:02:22Z</time>
      </trkpt>
      <trkpt lat="42.88797" lon="0.2052">
        <ele>2108.7</ele>
        <time>2016-07-24T10:02:48Z</time>
      </trkpt>
      <trkpt lat="42.88794" lon="0.20519">
        <ele>2108.1</ele>
        <time>2016-07-24T10:02:53Z</time>
      </trkpt>
      <trkpt lat="42.88765" lon="0.20518">
        <ele>2108.8</ele>
        <time>2016-07-24T10:03:42Z</time>
      </trkpt>
      <trkpt lat="42.88758" lon="0.2052">
        <ele>2110.9</ele>
        <time>2016-07-24T10:03:54Z</time>
      </trkpt>
      <trkpt lat="42.88756" lon="0.20521">
        <ele>2111</ele>
        <time>2016-07-24T10:03:58Z</time>
      </trkpt>
      <trkpt lat="42.88746" lon="0.20531">
        <ele>2111.3</ele>
        <time>2016-07-24T10:04:21Z</time>
      </trkpt>
      <trkpt lat="42.88738" lon="0.20532">
        <ele>2111</ele>
        <time>2016-07-24T10:04:31Z</time>
      </trkpt>
      <trkpt lat="42.88729" lon="0.20534">
        <ele>2107.1</ele>
        <time>2016-07-24T10:04:43Z</time>
      </trkpt>
      <trkpt lat="42.88728" lon="0.20533">
        <ele>2107.4</ele>
        <time>2016-07-24T10:04:44Z</time>
      </trkpt>
      <trkpt lat="42.88711" lon="0.20532">
        <ele>2104.6</ele>
        <time>2016-07-24T10:05:09Z</time>
      </trkpt>
      <trkpt lat="42.88703" lon="0.20533">
        <ele>2102.6</ele>
        <time>2016-07-24T10:05:28Z</time>
      </trkpt>
      <trkpt lat="42.88695" lon="0.20539">
        <ele>2100.6</ele>
        <time>2016-07-24T10:05:39Z</time>
      </trkpt>
      <trkpt lat="42.88686" lon="0.20539">
        <ele>2100.7</ele>
        <time>2016-07-24T10:05:49Z</time>
      </trkpt>
      <trkpt lat="42.88685" lon="0.20539">
        <ele>2100.5</ele>
        <time>2016-07-24T10:05:50Z</time>
      </trkpt>
      <trkpt lat="42.88672" lon="0.2054">
        <ele>2100.3</ele>
        <time>2016-07-24T10:06:04Z</time>
      </trkpt>
      <trkpt lat="42.88666" lon="0.20546">
        <ele>2100.1</ele>
        <time>2016-07-24T10:06:15Z</time>
      </trkpt>
      <trkpt lat="42.88658" lon="0.20553">
        <ele>2099.5</ele>
        <time>2016-07-24T10:06:25Z</time>
      </trkpt>
      <trkpt lat="42.88658" lon="0.20555">
        <ele>2100</ele>
        <time>2016-07-24T10:06:27Z</time>
      </trkpt>
      <trkpt lat="42.88637" lon="0.20575">
        <ele>2100.4</ele>
        <time>2016-07-24T10:06:55Z</time>
      </trkpt>
      <trkpt lat="42.88631" lon="0.20583">
        <ele>2101</ele>
        <time>2016-07-24T10:07:05Z</time>
      </trkpt>
      <trkpt lat="42.88628" lon="0.20591">
        <ele>2103.5</ele>
        <time>2016-07-24T10:07:12Z</time>
      </trkpt>
      <trkpt lat="42.88616" lon="0.20617">
        <ele>2104.1</ele>
        <time>2016-07-24T10:07:42Z</time>
      </trkpt>
      <trkpt lat="42.88608" lon="0.20623">
        <ele>2103.6</ele>
        <time>2016-07-24T10:07:56Z</time>
      </trkpt>
      <trkpt lat="42.88608" lon="0.20624">
        <ele>2103.5</ele>
        <time>2016-07-24T10:07:57Z</time>
      </trkpt>
      <trkpt lat="42.88592" lon="0.20625">
        <ele>2099.9</ele>
        <time>2016-07-24T10:09:14Z</time>
      </trkpt>
      <trkpt lat="42.88592" lon="0.20625">
        <ele>2100.3</ele>
        <time>2016-07-24T10:09:15Z</time>
      </trkpt>
      <trkpt lat="42.88583" lon="0.20623">
        <ele>2099.8</ele>
        <time>2016-07-24T10:10:19Z</time>
      </trkpt>
      <trkpt lat="42.88572" lon="0.20639">
        <ele>2100.2</ele>
        <time>2016-07-24T10:10:50Z</time>
      </trkpt>
      <trkpt lat="42.88567" lon="0.20648">
        <ele>2101.3</ele>
        <time>2016-07-24T10:11:04Z</time>
      </trkpt>
      <trkpt lat="42.88559" lon="0.2065">
        <ele>2102.4</ele>
        <time>2016-07-24T10:11:16Z</time>
      </trkpt>
      <trkpt lat="42.8855" lon="0.20652">
        <ele>2102.4</ele>
        <time>2016-07-24T10:11:26Z</time>
      </trkpt>
      <trkpt lat="42.88549" lon="0.20653">
        <ele>2102.6</ele>
        <time>2016-07-24T10:11:27Z</time>
      </trkpt>
      <trkpt lat="42.88535" lon="0.2065">
        <ele>2102.7</ele>
        <time>2016-07-24T10:11:56Z</time>
      </trkpt>
      <trkpt lat="42.88526" lon="0.20648">
        <ele>2103</ele>
        <time>2016-07-24T10:12:27Z</time>
      </trkpt>
      <trkpt lat="42.88526" lon="0.20647">
        <ele>2102.8</ele>
        <time>2016-07-24T10:12:28Z</time>
      </trkpt>
      <trkpt lat="42.88511" lon="0.20636">
        <ele>2103</ele>
        <time>2016-07-24T10:12:54Z</time>
      </trkpt>
      <trkpt lat="42.88506" lon="0.20627">
        <ele>2103.8</ele>
        <time>2016-07-24T10:13:04Z</time>
      </trkpt>
      <trkpt lat="42.88501" lon="0.20617">
        <ele>2102.9</ele>
        <time>2016-07-24T10:13:16Z</time>
      </trkpt>
      <trkpt lat="42.88499" lon="0.20605">
        <ele>2103.7</ele>
        <time>2016-07-24T10:13:35Z</time>
      </trkpt>
      <trkpt lat="42.88499" lon="0.20605">
        <ele>2103.9</ele>
        <time>2016-07-24T10:13:36Z</time>
      </trkpt>
      <trkpt lat="42.8849" lon="0.20601">
        <ele>2103.1</ele>
        <time>2016-07-24T10:15:01Z</time>
      </trkpt>
      <trkpt lat="42.88476" lon="0.20589">
        <ele>2103.4</ele>
        <time>2016-07-24T10:15:32Z</time>
      </trkpt>
      <trkpt lat="42.88467" lon="0.2059">
        <ele>2103.7</ele>
        <time>2016-07-24T10:15:46Z</time>
      </trkpt>
      <trkpt lat="42.88459" lon="0.20589">
        <ele>2103.5</ele>
        <time>2016-07-24T10:15:57Z</time>
      </trkpt>
      <trkpt lat="42.8845" lon="0.20593">
        <ele>2101.8</ele>
        <time>2016-07-24T10:18:32Z</time>
      </trkpt>
      <trkpt lat="42.8845" lon="0.20593">
        <ele>2102.2</ele>
        <time>2016-07-24T10:18:33Z</time>
      </trkpt>
      <trkpt lat="42.88442" lon="0.20595">
        <ele>2121.8</ele>
        <time>2016-07-24T11:37:32Z</time>
      </trkpt>
      <trkpt lat="42.88457" lon="0.20584">
        <ele>2120.7</ele>
        <time>2016-07-24T11:38:23Z</time>
      </trkpt>
      <trkpt lat="42.88466" lon="0.20581">
        <ele>2121</ele>
        <time>2016-07-24T11:38:40Z</time>
      </trkpt>
      <trkpt lat="42.88466" lon="0.20581">
        <ele>2121.5</ele>
        <time>2016-07-24T11:38:41Z</time>
      </trkpt>
      <trkpt lat="42.88477" lon="0.20571">
        <ele>2122.2</ele>
        <time>2016-07-24T11:39:20Z</time>
      </trkpt>
      <trkpt lat="42.88482" lon="0.2058">
        <ele>2122.1</ele>
        <time>2016-07-24T11:39:26Z</time>
      </trkpt>
      <trkpt lat="42.88487" lon="0.20589">
        <ele>2121.1</ele>
        <time>2016-07-24T11:39:33Z</time>
      </trkpt>
      <trkpt lat="42.88493" lon="0.20597">
        <ele>2120.5</ele>
        <time>2016-07-24T11:39:44Z</time>
      </trkpt>
      <trkpt lat="42.88494" lon="0.20598">
        <ele>2120.5</ele>
        <time>2016-07-24T11:39:45Z</time>
      </trkpt>
      <trkpt lat="42.88504" lon="0.20614">
        <ele>2119.3</ele>
        <time>2016-07-24T11:39:56Z</time>
      </trkpt>
      <trkpt lat="42.88509" lon="0.20621">
        <ele>2120</ele>
        <time>2016-07-24T11:40:03Z</time>
      </trkpt>
      <trkpt lat="42.88518" lon="0.20623">
        <ele>2120.1</ele>
        <time>2016-07-24T11:40:12Z</time>
      </trkpt>
      <trkpt lat="42.88526" lon="0.2062">
        <ele>2120.7</ele>
        <time>2016-07-24T11:40:21Z</time>
      </trkpt>
      <trkpt lat="42.88531" lon="0.2063">
        <ele>2120.5</ele>
        <time>2016-07-24T11:40:41Z</time>
      </trkpt>
      <trkpt lat="42.88533" lon="0.20641">
        <ele>2119.4</ele>
        <time>2016-07-24T11:40:52Z</time>
      </trkpt>
      <trkpt lat="42.88533" lon="0.20642">
        <ele>2119.3</ele>
        <time>2016-07-24T11:40:53Z</time>
      </trkpt>
      <trkpt lat="42.88548" lon="0.20649">
        <ele>2119.2</ele>
        <time>2016-07-24T11:41:12Z</time>
      </trkpt>
      <trkpt lat="42.88556" lon="0.20651">
        <ele>2120.4</ele>
        <time>2016-07-24T11:41:20Z</time>
      </trkpt>
      <trkpt lat="42.88565" lon="0.20649">
        <ele>2118.3</ele>
        <time>2016-07-24T11:41:30Z</time>
      </trkpt>
      <trkpt lat="42.88571" lon="0.20641">
        <ele>2116.7</ele>
        <time>2016-07-24T11:41:44Z</time>
      </trkpt>
      <trkpt lat="42.88578" lon="0.20633">
        <ele>2116.5</ele>
        <time>2016-07-24T11:41:59Z</time>
      </trkpt>
      <trkpt lat="42.88579" lon="0.20633">
        <ele>2116.5</ele>
        <time>2016-07-24T11:42:00Z</time>
      </trkpt>
      <trkpt lat="42.88588" lon="0.20617">
        <ele>2119.1</ele>
        <time>2016-07-24T11:42:29Z</time>
      </trkpt>
      <trkpt lat="42.88596" lon="0.20613">
        <ele>2121</ele>
        <time>2016-07-24T11:42:40Z</time>
      </trkpt>
      <trkpt lat="42.88604" lon="0.20608">
        <ele>2122.2</ele>
        <time>2016-07-24T11:42:48Z</time>
      </trkpt>
      <trkpt lat="42.88612" lon="0.20605">
        <ele>2122.7</ele>
        <time>2016-07-24T11:42:55Z</time>
      </trkpt>
      <trkpt lat="42.88619" lon="0.20599">
        <ele>2122.3</ele>
        <time>2016-07-24T11:43:06Z</time>
      </trkpt>
      <trkpt lat="42.8862" lon="0.20598">
        <ele>2122.7</ele>
        <time>2016-07-24T11:43:07Z</time>
      </trkpt>
      <trkpt lat="42.88633" lon="0.20585">
        <ele>2119.7</ele>
        <time>2016-07-24T11:43:24Z</time>
      </trkpt>
      <trkpt lat="42.88638" lon="0.20577">
        <ele>2119.4</ele>
        <time>2016-07-24T11:43:30Z</time>
      </trkpt>
      <trkpt lat="42.88644" lon="0.20568">
        <ele>2119.3</ele>
        <time>2016-07-24T11:43:38Z</time>
      </trkpt>
      <trkpt lat="42.8865" lon="0.2056">
        <ele>2119.9</ele>
        <time>2016-07-24T11:43:50Z</time>
      </trkpt>
      <trkpt lat="42.88658" lon="0.20553">
        <ele>2117.6</ele>
        <time>2016-07-24T11:44:01Z</time>
      </trkpt>
      <trkpt lat="42.88664" lon="0.20545">
        <ele>2117.3</ele>
        <time>2016-07-24T11:44:10Z</time>
      </trkpt>
      <trkpt lat="42.88665" lon="0.20545">
        <ele>2117.1</ele>
        <time>2016-07-24T11:44:11Z</time>
      </trkpt>
      <trkpt lat="42.88678" lon="0.20531">
        <ele>2115.9</ele>
        <time>2016-07-24T11:44:27Z</time>
      </trkpt>
      <trkpt lat="42.88684" lon="0.20522">
        <ele>2118.4</ele>
        <time>2016-07-24T11:44:38Z</time>
      </trkpt>
      <trkpt lat="42.88692" lon="0.20523">
        <ele>2119.4</ele>
        <time>2016-07-24T11:44:51Z</time>
      </trkpt>
      <trkpt lat="42.88701" lon="0.20524">
        <ele>2119.7</ele>
        <time>2016-07-24T11:45:02Z</time>
      </trkpt>
      <trkpt lat="42.88708" lon="0.20529">
        <ele>2120.6</ele>
        <time>2016-07-24T11:45:13Z</time>
      </trkpt>
      <trkpt lat="42.88709" lon="0.2053">
        <ele>2120.3</ele>
        <time>2016-07-24T11:45:14Z</time>
      </trkpt>
      <trkpt lat="42.88722" lon="0.20537">
        <ele>2125.6</ele>
        <time>2016-07-24T11:45:35Z</time>
      </trkpt>
      <trkpt lat="42.88729" lon="0.20531">
        <ele>2127.8</ele>
        <time>2016-07-24T11:45:49Z</time>
      </trkpt>
      <trkpt lat="42.88736" lon="0.20523">
        <ele>2129</ele>
        <time>2016-07-24T11:45:59Z</time>
      </trkpt>
      <trkpt lat="42.88744" lon="0.20527">
        <ele>2128.3</ele>
        <time>2016-07-24T11:46:19Z</time>
      </trkpt>
      <trkpt lat="42.88744" lon="0.20528">
        <ele>2128.1</ele>
        <time>2016-07-24T11:46:20Z</time>
      </trkpt>
      <trkpt lat="42.88761" lon="0.20521">
        <ele>2125.7</ele>
        <time>2016-07-24T11:47:44Z</time>
      </trkpt>
      <trkpt lat="42.88761" lon="0.20521">
        <ele>2125.4</ele>
        <time>2016-07-24T11:47:45Z</time>
      </trkpt>
      <trkpt lat="42.88778" lon="0.20519">
        <ele>2123.4</ele>
        <time>2016-07-24T11:48:10Z</time>
      </trkpt>
      <trkpt lat="42.88786" lon="0.20521">
        <ele>2124.8</ele>
        <time>2016-07-24T11:48:25Z</time>
      </trkpt>
      <trkpt lat="42.88792" lon="0.20514">
        <ele>2124.2</ele>
        <time>2016-07-24T11:48:36Z</time>
      </trkpt>
      <trkpt lat="42.88799" lon="0.20508">
        <ele>2124.3</ele>
        <time>2016-07-24T11:48:43Z</time>
      </trkpt>
      <trkpt lat="42.88807" lon="0.20509">
        <ele>2123.9</ele>
        <time>2016-07-24T11:48:50Z</time>
      </trkpt>
      <trkpt lat="42.88809" lon="0.2051">
        <ele>2123.9</ele>
        <time>2016-07-24T11:48:51Z</time>
      </trkpt>
      <trkpt lat="42.88824" lon="0.20511">
        <ele>2125.9</ele>
        <time>2016-07-24T11:49:12Z</time>
      </trkpt>
      <trkpt lat="42.88833" lon="0.20515">
        <ele>2125.1</ele>
        <time>2016-07-24T11:49:21Z</time>
      </trkpt>
      <trkpt lat="42.88841" lon="0.20513">
        <ele>2125.6</ele>
        <time>2016-07-24T11:49:33Z</time>
      </trkpt>
      <trkpt lat="42.8885" lon="0.20514">
        <ele>2125.5</ele>
        <time>2016-07-24T11:49:44Z</time>
      </trkpt>
      <trkpt lat="42.88859" lon="0.20515">
        <ele>2125.6</ele>
        <time>2016-07-24T11:49:56Z</time>
      </trkpt>
      <trkpt lat="42.88859" lon="0.20515">
        <ele>2125.5</ele>
        <time>2016-07-24T11:49:57Z</time>
      </trkpt>
      <trkpt lat="42.88875" lon="0.20512">
        <ele>2124.4</ele>
        <time>2016-07-24T11:50:24Z</time>
      </trkpt>
      <trkpt lat="42.88881" lon="0.20503">
        <ele>2123.7</ele>
        <time>2016-07-24T11:50:36Z</time>
      </trkpt>
      <trkpt lat="42.88887" lon="0.20494">
        <ele>2122.1</ele>
        <time>2016-07-24T11:50:48Z</time>
      </trkpt>
      <trkpt lat="42.88891" lon="0.20483">
        <ele>2120.1</ele>
        <time>2016-07-24T11:51:01Z</time>
      </trkpt>
      <trkpt lat="42.88892" lon="0.20482">
        <ele>2120.2</ele>
        <time>2016-07-24T11:51:02Z</time>
      </trkpt>
      <trkpt lat="42.88901" lon="0.20463">
        <ele>2119.3</ele>
        <time>2016-07-24T11:51:24Z</time>
      </trkpt>
      <trkpt lat="42.889" lon="0.20452">
        <ele>2119.1</ele>
        <time>2016-07-24T11:51:34Z</time>
      </trkpt>
      <trkpt lat="42.88901" lon="0.2044">
        <ele>2118.8</ele>
        <time>2016-07-24T11:51:43Z</time>
      </trkpt>
      <trkpt lat="42.88907" lon="0.20431">
        <ele>2118.4</ele>
        <time>2016-07-24T11:51:59Z</time>
      </trkpt>
      <trkpt lat="42.88912" lon="0.20422">
        <ele>2117.7</ele>
        <time>2016-07-24T11:52:30Z</time>
      </trkpt>
      <trkpt lat="42.88912" lon="0.20421">
        <ele>2117.7</ele>
        <time>2016-07-24T11:52:31Z</time>
      </trkpt>
      <trkpt lat="42.88921" lon="0.20402">
        <ele>2116.8</ele>
        <time>2016-07-24T11:52:52Z</time>
      </trkpt>
      <trkpt lat="42.88925" lon="0.20391">
        <ele>2116.4</ele>
        <time>2016-07-24T11:53:05Z</time>
      </trkpt>
      <trkpt lat="42.88929" lon="0.2038">
        <ele>2120.6</ele>
        <time>2016-07-24T11:53:37Z</time>
      </trkpt>
      <trkpt lat="42.88929" lon="0.20379">
        <ele>2121.1</ele>
        <time>2016-07-24T11:53:38Z</time>
      </trkpt>
      <trkpt lat="42.88942" lon="0.20366">
        <ele>2125</ele>
        <time>2016-07-24T11:54:04Z</time>
      </trkpt>
      <trkpt lat="42.88951" lon="0.20363">
        <ele>2127.6</ele>
        <time>2016-07-24T11:54:16Z</time>
      </trkpt>
      <trkpt lat="42.88958" lon="0.20356">
        <ele>2129.8</ele>
        <time>2016-07-24T11:54:29Z</time>
      </trkpt>
      <trkpt lat="42.88961" lon="0.20346">
        <ele>2130.8</ele>
        <time>2016-07-24T11:54:46Z</time>
      </trkpt>
      <trkpt lat="42.88961" lon="0.20345">
        <ele>2131.2</ele>
        <time>2016-07-24T11:54:47Z</time>
      </trkpt>
      <trkpt lat="42.8897" lon="0.20325">
        <ele>2135.9</ele>
        <time>2016-07-24T11:55:16Z</time>
      </trkpt>
      <trkpt lat="42.88974" lon="0.20315">
        <ele>2139.4</ele>
        <time>2016-07-24T11:55:34Z</time>
      </trkpt>
      <trkpt lat="42.88981" lon="0.20308">
        <ele>2142.4</ele>
        <time>2016-07-24T11:55:50Z</time>
      </trkpt>
      <trkpt lat="42.88981" lon="0.20307">
        <ele>2142.7</ele>
        <time>2016-07-24T11:55:51Z</time>
      </trkpt>
      <trkpt lat="42.88992" lon="0.2029">
        <ele>2141.8</ele>
        <time>2016-07-24T11:56:15Z</time>
      </trkpt>
      <trkpt lat="42.88997" lon="0.2028">
        <ele>2143.7</ele>
        <time>2016-07-24T11:56:25Z</time>
      </trkpt>
      <trkpt lat="42.89001" lon="0.2027">
        <ele>2144.2</ele>
        <time>2016-07-24T11:56:40Z</time>
      </trkpt>
      <trkpt lat="42.89008" lon="0.20262">
        <ele>2145.9</ele>
        <time>2016-07-24T11:56:51Z</time>
      </trkpt>
      <trkpt lat="42.89015" lon="0.20258">
        <ele>2148.7</ele>
        <time>2016-07-24T11:57:02Z</time>
      </trkpt>
      <trkpt lat="42.89016" lon="0.20258">
        <ele>2148.8</ele>
        <time>2016-07-24T11:57:03Z</time>
      </trkpt>
      <trkpt lat="42.8903" lon="0.20247">
        <ele>2151.3</ele>
        <time>2016-07-24T11:57:25Z</time>
      </trkpt>
      <trkpt lat="42.89037" lon="0.20239">
        <ele>2155.3</ele>
        <time>2016-07-24T11:57:39Z</time>
      </trkpt>
      <trkpt lat="42.89042" lon="0.20229">
        <ele>2155.9</ele>
        <time>2016-07-24T11:57:51Z</time>
      </trkpt>
      <trkpt lat="42.89048" lon="0.2022">
        <ele>2157</ele>
        <time>2016-07-24T11:58:23Z</time>
      </trkpt>
      <trkpt lat="42.89048" lon="0.2022">
        <ele>2157.1</ele>
        <time>2016-07-24T11:58:24Z</time>
      </trkpt>
      <trkpt lat="42.89055" lon="0.20211">
        <ele>2156</ele>
        <time>2016-07-24T12:00:53Z</time>
      </trkpt>
      <trkpt lat="42.89064" lon="0.20192">
        <ele>2152.6</ele>
        <time>2016-07-24T12:01:26Z</time>
      </trkpt>
      <trkpt lat="42.89067" lon="0.20182">
        <ele>2153.1</ele>
        <time>2016-07-24T12:01:38Z</time>
      </trkpt>
      <trkpt lat="42.8907" lon="0.2017">
        <ele>2156.6</ele>
        <time>2016-07-24T12:01:53Z</time>
      </trkpt>
      <trkpt lat="42.89078" lon="0.20166">
        <ele>2158.4</ele>
        <time>2016-07-24T12:02:07Z</time>
      </trkpt>
      <trkpt lat="42.89079" lon="0.20166">
        <ele>2158.4</ele>
        <time>2016-07-24T12:02:08Z</time>
      </trkpt>
      <trkpt lat="42.89091" lon="0.2015">
        <ele>2159.4</ele>
        <time>2016-07-24T12:02:36Z</time>
      </trkpt>
      <trkpt lat="42.89096" lon="0.20141">
        <ele>2159.4</ele>
        <time>2016-07-24T12:02:47Z</time>
      </trkpt>
      <trkpt lat="42.89103" lon="0.20133">
        <ele>2158.3</ele>
        <time>2016-07-24T12:02:57Z</time>
      </trkpt>
      <trkpt lat="42.89109" lon="0.20125">
        <ele>2156.6</ele>
        <time>2016-07-24T12:03:11Z</time>
      </trkpt>
      <trkpt lat="42.89109" lon="0.20124">
        <ele>2156.3</ele>
        <time>2016-07-24T12:03:12Z</time>
      </trkpt>
      <trkpt lat="42.89119" lon="0.20108">
        <ele>2151</ele>
        <time>2016-07-24T12:03:37Z</time>
      </trkpt>
      <trkpt lat="42.89126" lon="0.20102">
        <ele>2147.9</ele>
        <time>2016-07-24T12:03:51Z</time>
      </trkpt>
      <trkpt lat="42.89132" lon="0.20094">
        <ele>2147.3</ele>
        <time>2016-07-24T12:04:03Z</time>
      </trkpt>
      <trkpt lat="42.89139" lon="0.20086">
        <ele>2142.9</ele>
        <time>2016-07-24T12:04:24Z</time>
      </trkpt>
      <trkpt lat="42.89139" lon="0.20086">
        <ele>2142.5</ele>
        <time>2016-07-24T12:04:25Z</time>
      </trkpt>
      <trkpt lat="42.89156" lon="0.20087">
        <ele>2136.9</ele>
        <time>2016-07-24T12:04:56Z</time>
      </trkpt>
      <trkpt lat="42.89165" lon="0.2009">
        <ele>2133.9</ele>
        <time>2016-07-24T12:05:11Z</time>
      </trkpt>
      <trkpt lat="42.89173" lon="0.20096">
        <ele>2129.9</ele>
        <time>2016-07-24T12:05:23Z</time>
      </trkpt>
      <trkpt lat="42.89181" lon="0.20097">
        <ele>2128.6</ele>
        <time>2016-07-24T12:05:32Z</time>
      </trkpt>
      <trkpt lat="42.89182" lon="0.20097">
        <ele>2128.7</ele>
        <time>2016-07-24T12:05:33Z</time>
      </trkpt>
      <trkpt lat="42.89198" lon="0.20099">
        <ele>2127.7</ele>
        <time>2016-07-24T12:09:29Z</time>
      </trkpt>
      <trkpt lat="42.89199" lon="0.20099">
        <ele>2127.7</ele>
        <time>2016-07-24T12:09:30Z</time>
      </trkpt>
      <trkpt lat="42.89214" lon="0.20088">
        <ele>2129.2</ele>
        <time>2016-07-24T12:09:49Z</time>
      </trkpt>
      <trkpt lat="42.89223" lon="0.20085">
        <ele>2128.6</ele>
        <time>2016-07-24T12:10:01Z</time>
      </trkpt>
      <trkpt lat="42.89232" lon="0.20086">
        <ele>2130</ele>
        <time>2016-07-24T12:10:15Z</time>
      </trkpt>
      <trkpt lat="42.8924" lon="0.20084">
        <ele>2127.9</ele>
        <time>2016-07-24T12:10:24Z</time>
      </trkpt>
      <trkpt lat="42.89248" lon="0.20085">
        <ele>2128</ele>
        <time>2016-07-24T12:10:34Z</time>
      </trkpt>
      <trkpt lat="42.89249" lon="0.20085">
        <ele>2128.1</ele>
        <time>2016-07-24T12:10:35Z</time>
      </trkpt>
      <trkpt lat="42.89263" lon="0.20073">
        <ele>2130</ele>
        <time>2016-07-24T12:10:59Z</time>
      </trkpt>
      <trkpt lat="42.89269" lon="0.20064">
        <ele>2127.6</ele>
        <time>2016-07-24T12:11:14Z</time>
      </trkpt>
      <trkpt lat="42.89273" lon="0.20053">
        <ele>2125.3</ele>
        <time>2016-07-24T12:11:29Z</time>
      </trkpt>
      <trkpt lat="42.89276" lon="0.20042">
        <ele>2124.5</ele>
        <time>2016-07-24T12:11:50Z</time>
      </trkpt>
      <trkpt lat="42.89276" lon="0.20041">
        <ele>2124.7</ele>
        <time>2016-07-24T12:11:51Z</time>
      </trkpt>
      <trkpt lat="42.89281" lon="0.20022">
        <ele>2114.7</ele>
        <time>2016-07-24T12:13:10Z</time>
      </trkpt>
      <trkpt lat="42.89281" lon="0.20022">
        <ele>2114.5</ele>
        <time>2016-07-24T12:13:11Z</time>
      </trkpt>
      <trkpt lat="42.89284" lon="0.2">
        <ele>2106.3</ele>
        <time>2016-07-24T12:14:05Z</time>
      </trkpt>
      <trkpt lat="42.89293" lon="0.19998">
        <ele>2104.2</ele>
        <time>2016-07-24T12:14:22Z</time>
      </trkpt>
      <trkpt lat="42.89293" lon="0.19997">
        <ele>2104.2</ele>
        <time>2016-07-24T12:14:23Z</time>
      </trkpt>
      <trkpt lat="42.89295" lon="0.19978">
        <ele>2100.7</ele>
        <time>2016-07-24T12:14:59Z</time>
      </trkpt>
      <trkpt lat="42.89292" lon="0.19967">
        <ele>2100.6</ele>
        <time>2016-07-24T12:15:11Z</time>
      </trkpt>
      <trkpt lat="42.89285" lon="0.19959">
        <ele>2100.3</ele>
        <time>2016-07-24T12:15:23Z</time>
      </trkpt>
      <trkpt lat="42.89284" lon="0.19958">
        <ele>2100.1</ele>
        <time>2016-07-24T12:15:24Z</time>
      </trkpt>
      <trkpt lat="42.89279" lon="0.19942">
        <ele>2094.8</ele>
        <time>2016-07-24T12:15:54Z</time>
      </trkpt>
      <trkpt lat="42.89281" lon="0.1993">
        <ele>2091.1</ele>
        <time>2016-07-24T12:16:08Z</time>
      </trkpt>
      <trkpt lat="42.89279" lon="0.19919">
        <ele>2090.8</ele>
        <time>2016-07-24T12:16:19Z</time>
      </trkpt>
      <trkpt lat="42.89276" lon="0.19909">
        <ele>2089.2</ele>
        <time>2016-07-24T12:16:26Z</time>
      </trkpt>
      <trkpt lat="42.89276" lon="0.19908">
        <ele>2089.3</ele>
        <time>2016-07-24T12:16:27Z</time>
      </trkpt>
      <trkpt lat="42.89267" lon="0.19889">
        <ele>2089.7</ele>
        <time>2016-07-24T12:16:45Z</time>
      </trkpt>
      <trkpt lat="42.89261" lon="0.1988">
        <ele>2088</ele>
        <time>2016-07-24T12:17:02Z</time>
      </trkpt>
      <trkpt lat="42.89255" lon="0.19871">
        <ele>2086.3</ele>
        <time>2016-07-24T12:17:16Z</time>
      </trkpt>
      <trkpt lat="42.89251" lon="0.19861">
        <ele>2086</ele>
        <time>2016-07-24T12:17:23Z</time>
      </trkpt>
      <trkpt lat="42.89245" lon="0.19853">
        <ele>2085.3</ele>
        <time>2016-07-24T12:17:33Z</time>
      </trkpt>
      <trkpt lat="42.89244" lon="0.19852">
        <ele>2085.2</ele>
        <time>2016-07-24T12:17:34Z</time>
      </trkpt>
      <trkpt lat="42.89241" lon="0.19832">
        <ele>2081.8</ele>
        <time>2016-07-24T12:17:56Z</time>
      </trkpt>
      <trkpt lat="42.89243" lon="0.19821">
        <ele>2080.1</ele>
        <time>2016-07-24T12:18:04Z</time>
      </trkpt>
      <trkpt lat="42.89246" lon="0.1981">
        <ele>2080</ele>
        <time>2016-07-24T12:18:12Z</time>
      </trkpt>
      <trkpt lat="42.89252" lon="0.19801">
        <ele>2080.7</ele>
        <time>2016-07-24T12:18:20Z</time>
      </trkpt>
      <trkpt lat="42.89258" lon="0.19794">
        <ele>2079.8</ele>
        <time>2016-07-24T12:18:33Z</time>
      </trkpt>
      <trkpt lat="42.89266" lon="0.19787">
        <ele>2077.5</ele>
        <time>2016-07-24T12:18:50Z</time>
      </trkpt>
      <trkpt lat="42.89267" lon="0.19786">
        <ele>2077.7</ele>
        <time>2016-07-24T12:18:51Z</time>
      </trkpt>
      <trkpt lat="42.89273" lon="0.19767">
        <ele>2077.5</ele>
        <time>2016-07-24T12:19:34Z</time>
      </trkpt>
      <trkpt lat="42.89279" lon="0.19758">
        <ele>2077.1</ele>
        <time>2016-07-24T12:19:44Z</time>
      </trkpt>
      <trkpt lat="42.89284" lon="0.19749">
        <ele>2077.8</ele>
        <time>2016-07-24T12:19:59Z</time>
      </trkpt>
      <trkpt lat="42.89285" lon="0.19748">
        <ele>2077.9</ele>
        <time>2016-07-24T12:20:00Z</time>
      </trkpt>
      <trkpt lat="42.89299" lon="0.19739">
        <ele>2074.2</ele>
        <time>2016-07-24T12:20:18Z</time>
      </trkpt>
      <trkpt lat="42.89307" lon="0.19742">
        <ele>2070.6</ele>
        <time>2016-07-24T12:20:31Z</time>
      </trkpt>
      <trkpt lat="42.89316" lon="0.19746">
        <ele>2067.4</ele>
        <time>2016-07-24T12:20:48Z</time>
      </trkpt>
      <trkpt lat="42.89324" lon="0.19742">
        <ele>2063</ele>
        <time>2016-07-24T12:21:09Z</time>
      </trkpt>
      <trkpt lat="42.89325" lon="0.19742">
        <ele>2062.6</ele>
        <time>2016-07-24T12:21:10Z</time>
      </trkpt>
      <trkpt lat="42.89341" lon="0.1974">
        <ele>2060</ele>
        <time>2016-07-24T12:21:33Z</time>
      </trkpt>
      <trkpt lat="42.8935" lon="0.19737">
        <ele>2058.6</ele>
        <time>2016-07-24T12:21:45Z</time>
      </trkpt>
      <trkpt lat="42.89358" lon="0.19731">
        <ele>2058.5</ele>
        <time>2016-07-24T12:22:01Z</time>
      </trkpt>
      <trkpt lat="42.89365" lon="0.19725">
        <ele>2059.1</ele>
        <time>2016-07-24T12:22:15Z</time>
      </trkpt>
      <trkpt lat="42.89366" lon="0.19725">
        <ele>2059.2</ele>
        <time>2016-07-24T12:22:16Z</time>
      </trkpt>
      <trkpt lat="42.89383" lon="0.19724">
        <ele>2058.3</ele>
        <time>2016-07-24T12:22:49Z</time>
      </trkpt>
      <trkpt lat="42.89391" lon="0.19721">
        <ele>2055</ele>
        <time>2016-07-24T12:23:07Z</time>
      </trkpt>
      <trkpt lat="42.89398" lon="0.19713">
        <ele>2053.3</ele>
        <time>2016-07-24T12:23:21Z</time>
      </trkpt>
      <trkpt lat="42.89399" lon="0.19712">
        <ele>2053.5</ele>
        <time>2016-07-24T12:23:22Z</time>
      </trkpt>
      <trkpt lat="42.89413" lon="0.19718">
        <ele>2053.4</ele>
        <time>2016-07-24T12:23:43Z</time>
      </trkpt>
      <trkpt lat="42.89421" lon="0.19723">
        <ele>2049.5</ele>
        <time>2016-07-24T12:23:54Z</time>
      </trkpt>
      <trkpt lat="42.89427" lon="0.1973">
        <ele>2048.7</ele>
        <time>2016-07-24T12:24:03Z</time>
      </trkpt>
      <trkpt lat="42.89434" lon="0.19738">
        <ele>2048.7</ele>
        <time>2016-07-24T12:24:12Z</time>
      </trkpt>
      <trkpt lat="42.8944" lon="0.19745">
        <ele>2047.2</ele>
        <time>2016-07-24T12:24:20Z</time>
      </trkpt>
      <trkpt lat="42.89446" lon="0.19755">
        <ele>2044.6</ele>
        <time>2016-07-24T12:24:30Z</time>
      </trkpt>
      <trkpt lat="42.89446" lon="0.19755">
        <ele>2044.5</ele>
        <time>2016-07-24T12:24:31Z</time>
      </trkpt>
      <trkpt lat="42.8946" lon="0.19769">
        <ele>2043.1</ele>
        <time>2016-07-24T12:24:52Z</time>
      </trkpt>
      <trkpt lat="42.89465" lon="0.19777">
        <ele>2044.2</ele>
        <time>2016-07-24T12:25:00Z</time>
      </trkpt>
      <trkpt lat="42.89471" lon="0.19785">
        <ele>2044</ele>
        <time>2016-07-24T12:25:09Z</time>
      </trkpt>
      <trkpt lat="42.89475" lon="0.19796">
        <ele>2044.8</ele>
        <time>2016-07-24T12:25:17Z</time>
      </trkpt>
      <trkpt lat="42.89482" lon="0.19803">
        <ele>2044.5</ele>
        <time>2016-07-24T12:25:27Z</time>
      </trkpt>
      <trkpt lat="42.89489" lon="0.19811">
        <ele>2045.1</ele>
        <time>2016-07-24T12:25:38Z</time>
      </trkpt>
      <trkpt lat="42.8949" lon="0.19811">
        <ele>2045.2</ele>
        <time>2016-07-24T12:25:39Z</time>
      </trkpt>
      <trkpt lat="42.89505" lon="0.19816">
        <ele>2043.3</ele>
        <time>2016-07-24T12:25:51Z</time>
      </trkpt>
      <trkpt lat="42.89513" lon="0.1982">
        <ele>2042.8</ele>
        <time>2016-07-24T12:25:57Z</time>
      </trkpt>
      <trkpt lat="42.8952" lon="0.19827">
        <ele>2044.2</ele>
        <time>2016-07-24T12:26:04Z</time>
      </trkpt>
      <trkpt lat="42.89527" lon="0.19833">
        <ele>2043.8</ele>
        <time>2016-07-24T12:26:20Z</time>
      </trkpt>
      <trkpt lat="42.89536" lon="0.19836">
        <ele>2042.8</ele>
        <time>2016-07-24T12:26:31Z</time>
      </trkpt>
      <trkpt lat="42.89543" lon="0.19841">
        <ele>2043.8</ele>
        <time>2016-07-24T12:26:42Z</time>
      </trkpt>
      <trkpt lat="42.89544" lon="0.19841">
        <ele>2043.7</ele>
        <time>2016-07-24T12:26:43Z</time>
      </trkpt>
      <trkpt lat="42.89558" lon="0.1985">
        <ele>2043.9</ele>
        <time>2016-07-24T12:26:58Z</time>
      </trkpt>
      <trkpt lat="42.89567" lon="0.19853">
        <ele>2043.9</ele>
        <time>2016-07-24T12:27:07Z</time>
      </trkpt>
      <trkpt lat="42.89575" lon="0.19855">
        <ele>2044.6</ele>
        <time>2016-07-24T12:27:20Z</time>
      </trkpt>
      <trkpt lat="42.89583" lon="0.19861">
        <ele>2044</ele>
        <time>2016-07-24T12:27:32Z</time>
      </trkpt>
      <trkpt lat="42.8959" lon="0.19868">
        <ele>2043.2</ele>
        <time>2016-07-24T12:27:40Z</time>
      </trkpt>
      <trkpt lat="42.89596" lon="0.19876">
        <ele>2043.2</ele>
        <time>2016-07-24T12:27:49Z</time>
      </trkpt>
      <trkpt lat="42.89596" lon="0.19878">
        <ele>2043</ele>
        <time>2016-07-24T12:27:50Z</time>
      </trkpt>
      <trkpt lat="42.89609" lon="0.1989">
        <ele>2043.1</ele>
        <time>2016-07-24T12:28:07Z</time>
      </trkpt>
      <trkpt lat="42.89615" lon="0.19898">
        <ele>2044</ele>
        <time>2016-07-24T12:28:16Z</time>
      </trkpt>
      <trkpt lat="42.89619" lon="0.19908">
        <ele>2043.1</ele>
        <time>2016-07-24T12:28:25Z</time>
      </trkpt>
      <trkpt lat="42.89623" lon="0.19917">
        <ele>2044.3</ele>
        <time>2016-07-24T12:28:31Z</time>
      </trkpt>
      <trkpt lat="42.8963" lon="0.19924">
        <ele>2043.3</ele>
        <time>2016-07-24T12:28:38Z</time>
      </trkpt>
      <trkpt lat="42.89635" lon="0.19933">
        <ele>2043.7</ele>
        <time>2016-07-24T12:28:45Z</time>
      </trkpt>
      <trkpt lat="42.8964" lon="0.19942">
        <ele>2044.5</ele>
        <time>2016-07-24T12:28:53Z</time>
      </trkpt>
      <trkpt lat="42.89641" lon="0.19943">
        <ele>2044.4</ele>
        <time>2016-07-24T12:28:54Z</time>
      </trkpt>
      <trkpt lat="42.89646" lon="0.19963">
        <ele>2042.9</ele>
        <time>2016-07-24T12:29:08Z</time>
      </trkpt>
      <trkpt lat="42.8965" lon="0.19974">
        <ele>2043.9</ele>
        <time>2016-07-24T12:29:16Z</time>
      </trkpt>
      <trkpt lat="42.89655" lon="0.19983">
        <ele>2043.9</ele>
        <time>2016-07-24T12:29:24Z</time>
      </trkpt>
      <trkpt lat="42.89656" lon="0.19995">
        <ele>2043.4</ele>
        <time>2016-07-24T12:30:29Z</time>
      </trkpt>
      <trkpt lat="42.89655" lon="0.19995">
        <ele>2043.4</ele>
        <time>2016-07-24T12:30:30Z</time>
      </trkpt>
      <trkpt lat="42.89658" lon="0.20008">
        <ele>2040.3</ele>
        <time>2016-07-24T12:32:23Z</time>
      </trkpt>
      <trkpt lat="42.89663" lon="0.20029">
        <ele>2036</ele>
        <time>2016-07-24T12:32:41Z</time>
      </trkpt>
      <trkpt lat="42.89666" lon="0.20039">
        <ele>2033.1</ele>
        <time>2016-07-24T12:32:51Z</time>
      </trkpt>
      <trkpt lat="42.89675" lon="0.20038">
        <ele>2032</ele>
        <time>2016-07-24T12:33:02Z</time>
      </trkpt>
      <trkpt lat="42.89682" lon="0.20031">
        <ele>2032.8</ele>
        <time>2016-07-24T12:33:11Z</time>
      </trkpt>
      <trkpt lat="42.8969" lon="0.20028">
        <ele>2031.6</ele>
        <time>2016-07-24T12:33:20Z</time>
      </trkpt>
      <trkpt lat="42.89698" lon="0.20022">
        <ele>2031.1</ele>
        <time>2016-07-24T12:33:30Z</time>
      </trkpt>
      <trkpt lat="42.89698" lon="0.20022">
        <ele>2030.9</ele>
        <time>2016-07-24T12:33:31Z</time>
      </trkpt>
      <trkpt lat="42.89715" lon="0.20017">
        <ele>2027.2</ele>
        <time>2016-07-24T12:33:48Z</time>
      </trkpt>
      <trkpt lat="42.89722" lon="0.20012">
        <ele>2026.4</ele>
        <time>2016-07-24T12:33:56Z</time>
      </trkpt>
      <trkpt lat="42.89731" lon="0.20009">
        <ele>2026.2</ele>
        <time>2016-07-24T12:34:05Z</time>
      </trkpt>
      <trkpt lat="42.89739" lon="0.20012">
        <ele>2027.3</ele>
        <time>2016-07-24T12:34:13Z</time>
      </trkpt>
      <trkpt lat="42.89747" lon="0.20016">
        <ele>2027</ele>
        <time>2016-07-24T12:34:21Z</time>
      </trkpt>
      <trkpt lat="42.89754" lon="0.20022">
        <ele>2023</ele>
        <time>2016-07-24T12:34:34Z</time>
      </trkpt>
      <trkpt lat="42.89755" lon="0.20023">
        <ele>2022.6</ele>
        <time>2016-07-24T12:34:35Z</time>
      </trkpt>
      <trkpt lat="42.8977" lon="0.2003">
        <ele>2016.8</ele>
        <time>2016-07-24T12:34:52Z</time>
      </trkpt>
      <trkpt lat="42.89778" lon="0.20035">
        <ele>2015.4</ele>
        <time>2016-07-24T12:35:00Z</time>
      </trkpt>
      <trkpt lat="42.89785" lon="0.2004">
        <ele>2013</ele>
        <time>2016-07-24T12:35:07Z</time>
      </trkpt>
      <trkpt lat="42.89793" lon="0.20043">
        <ele>2010.1</ele>
        <time>2016-07-24T12:35:15Z</time>
      </trkpt>
      <trkpt lat="42.89801" lon="0.20046">
        <ele>2008.5</ele>
        <time>2016-07-24T12:35:23Z</time>
      </trkpt>
      <trkpt lat="42.89809" lon="0.20049">
        <ele>2008.1</ele>
        <time>2016-07-24T12:35:31Z</time>
      </trkpt>
      <trkpt lat="42.89817" lon="0.20051">
        <ele>2006.4</ele>
        <time>2016-07-24T12:35:41Z</time>
      </trkpt>
      <trkpt lat="42.89818" lon="0.20051">
        <ele>2006</ele>
        <time>2016-07-24T12:35:42Z</time>
      </trkpt>
      <trkpt lat="42.89834" lon="0.20057">
        <ele>2001.7</ele>
        <time>2016-07-24T12:36:01Z</time>
      </trkpt>
      <trkpt lat="42.89842" lon="0.20059">
        <ele>1997.9</ele>
        <time>2016-07-24T12:36:22Z</time>
      </trkpt>
      <trkpt lat="42.89851" lon="0.2006">
        <ele>1997</ele>
        <time>2016-07-24T12:36:34Z</time>
      </trkpt>
      <trkpt lat="42.89859" lon="0.20064">
        <ele>1995.7</ele>
        <time>2016-07-24T12:36:43Z</time>
      </trkpt>
      <trkpt lat="42.8986" lon="0.20064">
        <ele>1995.3</ele>
        <time>2016-07-24T12:36:44Z</time>
      </trkpt>
      <trkpt lat="42.89872" lon="0.20079">
        <ele>1988.1</ele>
        <time>2016-07-24T12:37:12Z</time>
      </trkpt>
      <trkpt lat="42.89874" lon="0.20091">
        <ele>1986.3</ele>
        <time>2016-07-24T12:38:02Z</time>
      </trkpt>
      <trkpt lat="42.89874" lon="0.20092">
        <ele>1986.4</ele>
        <time>2016-07-24T12:38:03Z</time>
      </trkpt>
      <trkpt lat="42.8987" lon="0.20114">
        <ele>1979.6</ele>
        <time>2016-07-24T12:38:26Z</time>
      </trkpt>
      <trkpt lat="42.89866" lon="0.20124">
        <ele>1977.7</ele>
        <time>2016-07-24T12:38:37Z</time>
      </trkpt>
      <trkpt lat="42.89862" lon="0.20135">
        <ele>1974.6</ele>
        <time>2016-07-24T12:38:47Z</time>
      </trkpt>
      <trkpt lat="42.8986" lon="0.20146">
        <ele>1972</ele>
        <time>2016-07-24T12:38:56Z</time>
      </trkpt>
      <trkpt lat="42.89861" lon="0.20157">
        <ele>1970.7</ele>
        <time>2016-07-24T12:39:04Z</time>
      </trkpt>
      <trkpt lat="42.89861" lon="0.20159">
        <ele>1970.6</ele>
        <time>2016-07-24T12:39:05Z</time>
      </trkpt>
      <trkpt lat="42.89865" lon="0.20179">
        <ele>1967.8</ele>
        <time>2016-07-24T12:39:19Z</time>
      </trkpt>
      <trkpt lat="42.89868" lon="0.20191">
        <ele>1968.4</ele>
        <time>2016-07-24T12:39:41Z</time>
      </trkpt>
      <trkpt lat="42.89876" lon="0.20197">
        <ele>1968.1</ele>
        <time>2016-07-24T12:40:04Z</time>
      </trkpt>
      <trkpt lat="42.89882" lon="0.20203">
        <ele>1967.1</ele>
        <time>2016-07-24T12:40:14Z</time>
      </trkpt>
      <trkpt lat="42.89883" lon="0.20204">
        <ele>1966.8</ele>
        <time>2016-07-24T12:40:15Z</time>
      </trkpt>
      <trkpt lat="42.89893" lon="0.20221">
        <ele>1965.4</ele>
        <time>2016-07-24T12:40:35Z</time>
      </trkpt>
      <trkpt lat="42.89898" lon="0.20231">
        <ele>1964.9</ele>
        <time>2016-07-24T12:40:43Z</time>
      </trkpt>
      <trkpt lat="42.89905" lon="0.20235">
        <ele>1964.4</ele>
        <time>2016-07-24T12:40:51Z</time>
      </trkpt>
      <trkpt lat="42.89911" lon="0.20244">
        <ele>1964.3</ele>
        <time>2016-07-24T12:40:59Z</time>
      </trkpt>
      <trkpt lat="42.89917" lon="0.20252">
        <ele>1964.6</ele>
        <time>2016-07-24T12:41:06Z</time>
      </trkpt>
      <trkpt lat="42.89924" lon="0.20259">
        <ele>1963.2</ele>
        <time>2016-07-24T12:41:13Z</time>
      </trkpt>
      <trkpt lat="42.89932" lon="0.20264">
        <ele>1962.4</ele>
        <time>2016-07-24T12:41:21Z</time>
      </trkpt>
      <trkpt lat="42.89934" lon="0.20264">
        <ele>1962.7</ele>
        <time>2016-07-24T12:41:22Z</time>
      </trkpt>
      <trkpt lat="42.89944" lon="0.2028">
        <ele>1962</ele>
        <time>2016-07-24T12:41:36Z</time>
      </trkpt>
      <trkpt lat="42.89948" lon="0.20289">
        <ele>1961.2</ele>
        <time>2016-07-24T12:41:44Z</time>
      </trkpt>
      <trkpt lat="42.89951" lon="0.203">
        <ele>1959.3</ele>
        <time>2016-07-24T12:41:52Z</time>
      </trkpt>
      <trkpt lat="42.89954" lon="0.20312">
        <ele>1957.7</ele>
        <time>2016-07-24T12:42:01Z</time>
      </trkpt>
      <trkpt lat="42.89955" lon="0.20323">
        <ele>1956.3</ele>
        <time>2016-07-24T12:42:09Z</time>
      </trkpt>
      <trkpt lat="42.89957" lon="0.20335">
        <ele>1954.2</ele>
        <time>2016-07-24T12:42:18Z</time>
      </trkpt>
      <trkpt lat="42.89959" lon="0.20345">
        <ele>1952.4</ele>
        <time>2016-07-24T12:42:25Z</time>
      </trkpt>
      <trkpt lat="42.89959" lon="0.20347">
        <ele>1952.3</ele>
        <time>2016-07-24T12:42:26Z</time>
      </trkpt>
      <trkpt lat="42.89967" lon="0.20367">
        <ele>1949.4</ele>
        <time>2016-07-24T12:42:41Z</time>
      </trkpt>
      <trkpt lat="42.8997" lon="0.20378">
        <ele>1947.8</ele>
        <time>2016-07-24T12:42:49Z</time>
      </trkpt>
      <trkpt lat="42.89973" lon="0.20389">
        <ele>1946.3</ele>
        <time>2016-07-24T12:42:56Z</time>
      </trkpt>
      <trkpt lat="42.89977" lon="0.204">
        <ele>1944.3</ele>
        <time>2016-07-24T12:43:05Z</time>
      </trkpt>
      <trkpt lat="42.89984" lon="0.20407">
        <ele>1942.4</ele>
        <time>2016-07-24T12:43:14Z</time>
      </trkpt>
      <trkpt lat="42.89989" lon="0.20416">
        <ele>1940.7</ele>
        <time>2016-07-24T12:43:23Z</time>
      </trkpt>
      <trkpt lat="42.89995" lon="0.20424">
        <ele>1938.7</ele>
        <time>2016-07-24T12:43:31Z</time>
      </trkpt>
      <trkpt lat="42.89996" lon="0.20425">
        <ele>1938.5</ele>
        <time>2016-07-24T12:43:32Z</time>
      </trkpt>
      <trkpt lat="42.90012" lon="0.2043">
        <ele>1933.5</ele>
        <time>2016-07-24T12:43:53Z</time>
      </trkpt>
      <trkpt lat="42.9002" lon="0.20432">
        <ele>1930.5</ele>
        <time>2016-07-24T12:44:03Z</time>
      </trkpt>
      <trkpt lat="42.90028" lon="0.20434">
        <ele>1927.7</ele>
        <time>2016-07-24T12:44:12Z</time>
      </trkpt>
      <trkpt lat="42.90034" lon="0.20441">
        <ele>1927</ele>
        <time>2016-07-24T12:44:20Z</time>
      </trkpt>
      <trkpt lat="42.90038" lon="0.20451">
        <ele>1924.1</ele>
        <time>2016-07-24T12:44:28Z</time>
      </trkpt>
      <trkpt lat="42.90045" lon="0.20458">
        <ele>1921.4</ele>
        <time>2016-07-24T12:44:35Z</time>
      </trkpt>
      <trkpt lat="42.90046" lon="0.20459">
        <ele>1921.3</ele>
        <time>2016-07-24T12:44:36Z</time>
      </trkpt>
      <trkpt lat="42.90056" lon="0.20475">
        <ele>1918</ele>
        <time>2016-07-24T12:44:50Z</time>
      </trkpt>
      <trkpt lat="42.90062" lon="0.20481">
        <ele>1918.4</ele>
        <time>2016-07-24T12:44:58Z</time>
      </trkpt>
      <trkpt lat="42.90069" lon="0.20489">
        <ele>1914.9</ele>
        <time>2016-07-24T12:45:06Z</time>
      </trkpt>
      <trkpt lat="42.90072" lon="0.205">
        <ele>1913.3</ele>
        <time>2016-07-24T12:45:15Z</time>
      </trkpt>
      <trkpt lat="42.90077" lon="0.20509">
        <ele>1910</ele>
        <time>2016-07-24T12:45:23Z</time>
      </trkpt>
      <trkpt lat="42.90081" lon="0.2052">
        <ele>1908</ele>
        <time>2016-07-24T12:45:31Z</time>
      </trkpt>
      <trkpt lat="42.90085" lon="0.20531">
        <ele>1905.7</ele>
        <time>2016-07-24T12:45:39Z</time>
      </trkpt>
      <trkpt lat="42.90086" lon="0.20532">
        <ele>1905.5</ele>
        <time>2016-07-24T12:45:40Z</time>
      </trkpt>
      <trkpt lat="42.90097" lon="0.20547">
        <ele>1899.1</ele>
        <time>2016-07-24T12:45:55Z</time>
      </trkpt>
      <trkpt lat="42.90101" lon="0.20557">
        <ele>1898</ele>
        <time>2016-07-24T12:46:03Z</time>
      </trkpt>
      <trkpt lat="42.90105" lon="0.20567">
        <ele>1893.8</ele>
        <time>2016-07-24T12:46:11Z</time>
      </trkpt>
      <trkpt lat="42.90109" lon="0.20576">
        <ele>1892.6</ele>
        <time>2016-07-24T12:46:19Z</time>
      </trkpt>
      <trkpt lat="42.90113" lon="0.20587">
        <ele>1889.8</ele>
        <time>2016-07-24T12:46:27Z</time>
      </trkpt>
      <trkpt lat="42.90116" lon="0.20598">
        <ele>1887.9</ele>
        <time>2016-07-24T12:46:34Z</time>
      </trkpt>
      <trkpt lat="42.90118" lon="0.20608">
        <ele>1885.6</ele>
        <time>2016-07-24T12:46:41Z</time>
      </trkpt>
      <trkpt lat="42.90119" lon="0.20609">
        <ele>1885.9</ele>
        <time>2016-07-24T12:46:42Z</time>
      </trkpt>
      <trkpt lat="42.90128" lon="0.20627">
        <ele>1881</ele>
        <time>2016-07-24T12:46:56Z</time>
      </trkpt>
      <trkpt lat="42.90133" lon="0.20636">
        <ele>1878.8</ele>
        <time>2016-07-24T12:47:03Z</time>
      </trkpt>
      <trkpt lat="42.90136" lon="0.20647">
        <ele>1876.7</ele>
        <time>2016-07-24T12:47:11Z</time>
      </trkpt>
      <trkpt lat="42.9014" lon="0.20657">
        <ele>1873.7</ele>
        <time>2016-07-24T12:47:18Z</time>
      </trkpt>
      <trkpt lat="42.90146" lon="0.20666">
        <ele>1872.3</ele>
        <time>2016-07-24T12:47:25Z</time>
      </trkpt>
      <trkpt lat="42.9015" lon="0.20676">
        <ele>1870.4</ele>
        <time>2016-07-24T12:47:32Z</time>
      </trkpt>
      <trkpt lat="42.90153" lon="0.20686">
        <ele>1869.1</ele>
        <time>2016-07-24T12:47:39Z</time>
      </trkpt>
      <trkpt lat="42.90156" lon="0.20697">
        <ele>1866.2</ele>
        <time>2016-07-24T12:47:47Z</time>
      </trkpt>
      <trkpt lat="42.90156" lon="0.20698">
        <ele>1866</ele>
        <time>2016-07-24T12:47:48Z</time>
      </trkpt>
      <trkpt lat="42.90159" lon="0.20718">
        <ele>1862.8</ele>
        <time>2016-07-24T12:50:05Z</time>
      </trkpt>
      <trkpt lat="42.90159" lon="0.20719">
        <ele>1862.6</ele>
        <time>2016-07-24T12:50:06Z</time>
      </trkpt>
      <trkpt lat="42.90169" lon="0.20735">
        <ele>1858.8</ele>
        <time>2016-07-24T12:50:35Z</time>
      </trkpt>
      <trkpt lat="42.90177" lon="0.20741">
        <ele>1855.6</ele>
        <time>2016-07-24T12:50:47Z</time>
      </trkpt>
      <trkpt lat="42.90176" lon="0.20753">
        <ele>1850</ele>
        <time>2016-07-24T12:51:13Z</time>
      </trkpt>
      <trkpt lat="42.90175" lon="0.20753">
        <ele>1849.6</ele>
        <time>2016-07-24T12:51:14Z</time>
      </trkpt>
      <trkpt lat="42.90164" lon="0.20768">
        <ele>1847.4</ele>
        <time>2016-07-24T12:51:30Z</time>
      </trkpt>
      <trkpt lat="42.90156" lon="0.20773">
        <ele>1845.6</ele>
        <time>2016-07-24T12:51:39Z</time>
      </trkpt>
      <trkpt lat="42.90155" lon="0.20785">
        <ele>1843.3</ele>
        <time>2016-07-24T12:51:53Z</time>
      </trkpt>
      <trkpt lat="42.90164" lon="0.20789">
        <ele>1839.5</ele>
        <time>2016-07-24T12:52:10Z</time>
      </trkpt>
      <trkpt lat="42.90172" lon="0.20788">
        <ele>1837.2</ele>
        <time>2016-07-24T12:52:23Z</time>
      </trkpt>
      <trkpt lat="42.90173" lon="0.20787">
        <ele>1837</ele>
        <time>2016-07-24T12:52:24Z</time>
      </trkpt>
      <trkpt lat="42.90188" lon="0.20796">
        <ele>1830.5</ele>
        <time>2016-07-24T12:52:44Z</time>
      </trkpt>
      <trkpt lat="42.90197" lon="0.20798">
        <ele>1829</ele>
        <time>2016-07-24T12:52:54Z</time>
      </trkpt>
      <trkpt lat="42.90205" lon="0.20802">
        <ele>1825.6</ele>
        <time>2016-07-24T12:53:06Z</time>
      </trkpt>
      <trkpt lat="42.90211" lon="0.20811">
        <ele>1822.4</ele>
        <time>2016-07-24T12:53:16Z</time>
      </trkpt>
      <trkpt lat="42.90214" lon="0.20821">
        <ele>1819.1</ele>
        <time>2016-07-24T12:53:26Z</time>
      </trkpt>
      <trkpt lat="42.90215" lon="0.20822">
        <ele>1818.7</ele>
        <time>2016-07-24T12:53:27Z</time>
      </trkpt>
      <trkpt lat="42.90221" lon="0.20836">
        <ele>1814.3</ele>
        <time>2016-07-24T12:53:47Z</time>
      </trkpt>
      <trkpt lat="42.90229" lon="0.20839">
        <ele>1811.5</ele>
        <time>2016-07-24T12:54:00Z</time>
      </trkpt>
      <trkpt lat="42.90237" lon="0.20841">
        <ele>1806.6</ele>
        <time>2016-07-24T12:54:17Z</time>
      </trkpt>
      <trkpt lat="42.90245" lon="0.20839">
        <ele>1805.6</ele>
        <time>2016-07-24T12:54:26Z</time>
      </trkpt>
      <trkpt lat="42.90251" lon="0.20834">
        <ele>1801.8</ele>
        <time>2016-07-24T12:54:51Z</time>
      </trkpt>
      <trkpt lat="42.90278" lon="0.20847">
        <ele>1797.1</ele>
        <time>2016-07-24T12:56:10Z</time>
      </trkpt>
      <trkpt lat="42.9028" lon="0.20847">
        <ele>1790.9</ele>
        <time>2016-07-24T12:56:12Z</time>
      </trkpt>
      <trkpt lat="42.90295" lon="0.20857">
        <ele>1787.4</ele>
        <time>2016-07-24T12:57:14Z</time>
      </trkpt>
      <trkpt lat="42.90303" lon="0.20862">
        <ele>1778</ele>
        <time>2016-07-24T12:57:24Z</time>
      </trkpt>
      <trkpt lat="42.90312" lon="0.20866">
        <ele>1778</ele>
        <time>2016-07-24T12:57:33Z</time>
      </trkpt>
      <trkpt lat="42.90318" lon="0.20874">
        <ele>1778.8</ele>
        <time>2016-07-24T12:57:43Z</time>
      </trkpt>
      <trkpt lat="42.90325" lon="0.2088">
        <ele>1778.7</ele>
        <time>2016-07-24T12:57:56Z</time>
      </trkpt>
      <trkpt lat="42.90333" lon="0.20884">
        <ele>1775.6</ele>
        <time>2016-07-24T12:58:08Z</time>
      </trkpt>
      <trkpt lat="42.90341" lon="0.20888">
        <ele>1773.8</ele>
        <time>2016-07-24T12:58:18Z</time>
      </trkpt>
      <trkpt lat="42.90342" lon="0.20888">
        <ele>1773.5</ele>
        <time>2016-07-24T12:58:19Z</time>
      </trkpt>
      <trkpt lat="42.90357" lon="0.20897">
        <ele>1770.1</ele>
        <time>2016-07-24T12:58:38Z</time>
      </trkpt>
      <trkpt lat="42.90363" lon="0.20905">
        <ele>1769.1</ele>
        <time>2016-07-24T12:58:49Z</time>
      </trkpt>
      <trkpt lat="42.90372" lon="0.2091">
        <ele>1765.9</ele>
        <time>2016-07-24T12:59:00Z</time>
      </trkpt>
      <trkpt lat="42.90379" lon="0.20915">
        <ele>1764</ele>
        <time>2016-07-24T12:59:12Z</time>
      </trkpt>
      <trkpt lat="42.90385" lon="0.20922">
        <ele>1760.4</ele>
        <time>2016-07-24T12:59:24Z</time>
      </trkpt>
      <trkpt lat="42.90387" lon="0.20923">
        <ele>1760.5</ele>
        <time>2016-07-24T12:59:25Z</time>
      </trkpt>
      <trkpt lat="42.90401" lon="0.20933">
        <ele>1755.8</ele>
        <time>2016-07-24T12:59:45Z</time>
      </trkpt>
      <trkpt lat="42.90409" lon="0.20936">
        <ele>1755.5</ele>
        <time>2016-07-24T12:59:55Z</time>
      </trkpt>
      <trkpt lat="42.90417" lon="0.20942">
        <ele>1753</ele>
        <time>2016-07-24T13:00:07Z</time>
      </trkpt>
      <trkpt lat="42.90425" lon="0.20946">
        <ele>1750.5</ele>
        <time>2016-07-24T13:00:19Z</time>
      </trkpt>
      <trkpt lat="42.90434" lon="0.20945">
        <ele>1748.9</ele>
        <time>2016-07-24T13:00:31Z</time>
      </trkpt>
      <trkpt lat="42.90434" lon="0.20945">
        <ele>1748.7</ele>
        <time>2016-07-24T13:00:32Z</time>
      </trkpt>
      <trkpt lat="42.90445" lon="0.20962">
        <ele>1745.9</ele>
        <time>2016-07-24T13:00:59Z</time>
      </trkpt>
      <trkpt lat="42.90448" lon="0.20974">
        <ele>1746.7</ele>
        <time>2016-07-24T13:01:10Z</time>
      </trkpt>
      <trkpt lat="42.90452" lon="0.20963">
        <ele>1742.1</ele>
        <time>2016-07-24T13:01:27Z</time>
      </trkpt>
      <trkpt lat="42.90458" lon="0.20956">
        <ele>1739</ele>
        <time>2016-07-24T13:01:37Z</time>
      </trkpt>
      <trkpt lat="42.90459" lon="0.20955">
        <ele>1738.9</ele>
        <time>2016-07-24T13:01:38Z</time>
      </trkpt>
      <trkpt lat="42.90476" lon="0.20955">
        <ele>1730.8</ele>
        <time>2016-07-24T13:02:12Z</time>
      </trkpt>
      <trkpt lat="42.90484" lon="0.20956">
        <ele>1725.8</ele>
        <time>2016-07-24T13:02:30Z</time>
      </trkpt>
      <trkpt lat="42.90491" lon="0.20949">
        <ele>1722.5</ele>
        <time>2016-07-24T13:02:41Z</time>
      </trkpt>
      <trkpt lat="42.90492" lon="0.20949">
        <ele>1722.2</ele>
        <time>2016-07-24T13:02:42Z</time>
      </trkpt>
      <trkpt lat="42.90503" lon="0.20934">
        <ele>1716.9</ele>
        <time>2016-07-24T13:03:02Z</time>
      </trkpt>
      <trkpt lat="42.90511" lon="0.20928">
        <ele>1713.2</ele>
        <time>2016-07-24T13:03:14Z</time>
      </trkpt>
      <trkpt lat="42.9052" lon="0.20925">
        <ele>1708.5</ele>
        <time>2016-07-24T13:03:27Z</time>
      </trkpt>
      <trkpt lat="42.90528" lon="0.20921">
        <ele>1704.1</ele>
        <time>2016-07-24T13:03:38Z</time>
      </trkpt>
      <trkpt lat="42.90536" lon="0.20916">
        <ele>1699.6</ele>
        <time>2016-07-24T13:03:51Z</time>
      </trkpt>
      <trkpt lat="42.90536" lon="0.20915">
        <ele>1699.4</ele>
        <time>2016-07-24T13:03:52Z</time>
      </trkpt>
      <trkpt lat="42.90552" lon="0.20916">
        <ele>1694.5</ele>
        <time>2016-07-24T13:04:08Z</time>
      </trkpt>
      <trkpt lat="42.90558" lon="0.20925">
        <ele>1689.2</ele>
        <time>2016-07-24T13:04:24Z</time>
      </trkpt>
      <trkpt lat="42.90552" lon="0.20934">
        <ele>1683.7</ele>
        <time>2016-07-24T13:04:41Z</time>
      </trkpt>
      <trkpt lat="42.90548" lon="0.20944">
        <ele>1681.9</ele>
        <time>2016-07-24T13:04:51Z</time>
      </trkpt>
      <trkpt lat="42.90547" lon="0.20957">
        <ele>1680.1</ele>
        <time>2016-07-24T13:05:01Z</time>
      </trkpt>
      <trkpt lat="42.90547" lon="0.20958">
        <ele>1680</ele>
        <time>2016-07-24T13:05:02Z</time>
      </trkpt>
      <trkpt lat="42.90545" lon="0.2098">
        <ele>1674</ele>
        <time>2016-07-24T13:05:22Z</time>
      </trkpt>
      <trkpt lat="42.90543" lon="0.20991">
        <ele>1671.3</ele>
        <time>2016-07-24T13:05:32Z</time>
      </trkpt>
      <trkpt lat="42.90542" lon="0.21002">
        <ele>1669.6</ele>
        <time>2016-07-24T13:05:39Z</time>
      </trkpt>
      <trkpt lat="42.90541" lon="0.21014">
        <ele>1668</ele>
        <time>2016-07-24T13:05:48Z</time>
      </trkpt>
      <trkpt lat="42.90538" lon="0.21024">
        <ele>1665.5</ele>
        <time>2016-07-24T13:05:59Z</time>
      </trkpt>
      <trkpt lat="42.90532" lon="0.21033">
        <ele>1663.2</ele>
        <time>2016-07-24T13:06:28Z</time>
      </trkpt>
      <trkpt lat="42.90532" lon="0.21033">
        <ele>1663.1</ele>
        <time>2016-07-24T13:06:29Z</time>
      </trkpt>
      <trkpt lat="42.90531" lon="0.21046">
        <ele>1662.2</ele>
        <time>2016-07-24T13:09:30Z</time>
      </trkpt>
      <trkpt lat="42.90532" lon="0.21069">
        <ele>1657.4</ele>
        <time>2016-07-24T13:09:55Z</time>
      </trkpt>
      <trkpt lat="42.90534" lon="0.21081">
        <ele>1654.8</ele>
        <time>2016-07-24T13:10:06Z</time>
      </trkpt>
      <trkpt lat="42.90542" lon="0.21083">
        <ele>1653.1</ele>
        <time>2016-07-24T13:10:18Z</time>
      </trkpt>
      <trkpt lat="42.90551" lon="0.2108">
        <ele>1649.8</ele>
        <time>2016-07-24T13:10:53Z</time>
      </trkpt>
      <trkpt lat="42.90551" lon="0.2108">
        <ele>1649.7</ele>
        <time>2016-07-24T13:10:54Z</time>
      </trkpt>
      <trkpt lat="42.90566" lon="0.2109">
        <ele>1648.1</ele>
        <time>2016-07-24T13:11:19Z</time>
      </trkpt>
      <trkpt lat="42.90574" lon="0.21091">
        <ele>1647.2</ele>
        <time>2016-07-24T13:11:27Z</time>
      </trkpt>
      <trkpt lat="42.90582" lon="0.21094">
        <ele>1644.8</ele>
        <time>2016-07-24T13:11:37Z</time>
      </trkpt>
      <trkpt lat="42.9059" lon="0.21099">
        <ele>1643.4</ele>
        <time>2016-07-24T13:11:44Z</time>
      </trkpt>
      <trkpt lat="42.90598" lon="0.21101">
        <ele>1640.3</ele>
        <time>2016-07-24T13:11:53Z</time>
      </trkpt>
      <trkpt lat="42.90606" lon="0.21107">
        <ele>1638.4</ele>
        <time>2016-07-24T13:12:01Z</time>
      </trkpt>
      <trkpt lat="42.90607" lon="0.21107">
        <ele>1638</ele>
        <time>2016-07-24T13:12:02Z</time>
      </trkpt>
      <trkpt lat="42.9062" lon="0.21118">
        <ele>1634.8</ele>
        <time>2016-07-24T13:12:19Z</time>
      </trkpt>
      <trkpt lat="42.90628" lon="0.21121">
        <ele>1634.1</ele>
        <time>2016-07-24T13:12:29Z</time>
      </trkpt>
      <trkpt lat="42.90636" lon="0.21125">
        <ele>1632.4</ele>
        <time>2016-07-24T13:12:39Z</time>
      </trkpt>
      <trkpt lat="42.90645" lon="0.21128">
        <ele>1631.4</ele>
        <time>2016-07-24T13:12:47Z</time>
      </trkpt>
      <trkpt lat="42.90653" lon="0.21129">
        <ele>1630.6</ele>
        <time>2016-07-24T13:12:53Z</time>
      </trkpt>
      <trkpt lat="42.9066" lon="0.2113">
        <ele>1628.3</ele>
        <time>2016-07-24T13:12:58Z</time>
      </trkpt>
      <trkpt lat="42.90669" lon="0.21131">
        <ele>1627.3</ele>
        <time>2016-07-24T13:13:04Z</time>
      </trkpt>
      <trkpt lat="42.90671" lon="0.21131">
        <ele>1627.3</ele>
        <time>2016-07-24T13:13:05Z</time>
      </trkpt>
      <trkpt lat="42.90685" lon="0.21128">
        <ele>1625.6</ele>
        <time>2016-07-24T13:13:18Z</time>
      </trkpt>
      <trkpt lat="42.90692" lon="0.21134">
        <ele>1623</ele>
        <time>2016-07-24T13:13:30Z</time>
      </trkpt>
      <trkpt lat="42.90699" lon="0.2114">
        <ele>1620.8</ele>
        <time>2016-07-24T13:13:39Z</time>
      </trkpt>
      <trkpt lat="42.90706" lon="0.21146">
        <ele>1619.8</ele>
        <time>2016-07-24T13:13:46Z</time>
      </trkpt>
      <trkpt lat="42.90712" lon="0.21155">
        <ele>1617</ele>
        <time>2016-07-24T13:13:57Z</time>
      </trkpt>
      <trkpt lat="42.90716" lon="0.21165">
        <ele>1614.8</ele>
        <time>2016-07-24T13:14:06Z</time>
      </trkpt>
      <trkpt lat="42.90717" lon="0.21167">
        <ele>1614.4</ele>
        <time>2016-07-24T13:14:07Z</time>
      </trkpt>
      <trkpt lat="42.90723" lon="0.21186">
        <ele>1613.2</ele>
        <time>2016-07-24T13:14:23Z</time>
      </trkpt>
      <trkpt lat="42.90727" lon="0.21198">
        <ele>1613.8</ele>
        <time>2016-07-24T13:14:32Z</time>
      </trkpt>
      <trkpt lat="42.90734" lon="0.21204">
        <ele>1612.9</ele>
        <time>2016-07-24T13:14:40Z</time>
      </trkpt>
      <trkpt lat="42.90737" lon="0.21215">
        <ele>1612.8</ele>
        <time>2016-07-24T13:14:49Z</time>
      </trkpt>
      <trkpt lat="42.90743" lon="0.21224">
        <ele>1610.9</ele>
        <time>2016-07-24T13:14:58Z</time>
      </trkpt>
      <trkpt lat="42.90745" lon="0.21235">
        <ele>1610</ele>
        <time>2016-07-24T13:16:07Z</time>
      </trkpt>
      <trkpt lat="42.90746" lon="0.21236">
        <ele>1610</ele>
        <time>2016-07-24T13:16:08Z</time>
      </trkpt>
      <trkpt lat="42.90753" lon="0.21253">
        <ele>1609.1</ele>
        <time>2016-07-24T13:16:18Z</time>
      </trkpt>
      <trkpt lat="42.90756" lon="0.21263">
        <ele>1608.6</ele>
        <time>2016-07-24T13:16:23Z</time>
      </trkpt>
      <trkpt lat="42.90757" lon="0.21274">
        <ele>1608.2</ele>
        <time>2016-07-24T13:16:30Z</time>
      </trkpt>
      <trkpt lat="42.90763" lon="0.21283">
        <ele>1607.9</ele>
        <time>2016-07-24T13:16:37Z</time>
      </trkpt>
      <trkpt lat="42.90771" lon="0.21286">
        <ele>1607.3</ele>
        <time>2016-07-24T13:16:43Z</time>
      </trkpt>
      <trkpt lat="42.90778" lon="0.21292">
        <ele>1606.4</ele>
        <time>2016-07-24T13:16:49Z</time>
      </trkpt>
      <trkpt lat="42.90785" lon="0.21297">
        <ele>1605.6</ele>
        <time>2016-07-24T13:16:54Z</time>
      </trkpt>
      <trkpt lat="42.90791" lon="0.21304">
        <ele>1605</ele>
        <time>2016-07-24T13:16:59Z</time>
      </trkpt>
      <trkpt lat="42.90798" lon="0.21309">
        <ele>1605.4</ele>
        <time>2016-07-24T13:17:05Z</time>
      </trkpt>
      <trkpt lat="42.90804" lon="0.21317">
        <ele>1606.1</ele>
        <time>2016-07-24T13:17:11Z</time>
      </trkpt>
      <trkpt lat="42.90805" lon="0.21319">
        <ele>1606</ele>
        <time>2016-07-24T13:17:12Z</time>
      </trkpt>
      <trkpt lat="42.90818" lon="0.21331">
        <ele>1605.7</ele>
        <time>2016-07-24T13:17:23Z</time>
      </trkpt>
      <trkpt lat="42.90824" lon="0.21339">
        <ele>1604.9</ele>
        <time>2016-07-24T13:17:30Z</time>
      </trkpt>
      <trkpt lat="42.90831" lon="0.21345">
        <ele>1604.3</ele>
        <time>2016-07-24T13:17:35Z</time>
      </trkpt>
      <trkpt lat="42.90837" lon="0.21352">
        <ele>1603.6</ele>
        <time>2016-07-24T13:17:41Z</time>
      </trkpt>
      <trkpt lat="42.90843" lon="0.2136">
        <ele>1601.8</ele>
        <time>2016-07-24T13:17:46Z</time>
      </trkpt>
      <trkpt lat="42.9085" lon="0.21366">
        <ele>1601.5</ele>
        <time>2016-07-24T13:17:51Z</time>
      </trkpt>
      <trkpt lat="42.90856" lon="0.21375">
        <ele>1600.6</ele>
        <time>2016-07-24T13:17:57Z</time>
      </trkpt>
      <trkpt lat="42.90862" lon="0.21382">
        <ele>1599.5</ele>
        <time>2016-07-24T13:18:02Z</time>
      </trkpt>
      <trkpt lat="42.90868" lon="0.2139">
        <ele>1598.9</ele>
        <time>2016-07-24T13:18:09Z</time>
      </trkpt>
      <trkpt lat="42.90875" lon="0.21396">
        <ele>1597.9</ele>
        <time>2016-07-24T13:18:16Z</time>
      </trkpt>
      <trkpt lat="42.90876" lon="0.21396">
        <ele>1597.6</ele>
        <time>2016-07-24T13:18:17Z</time>
      </trkpt>
      <trkpt lat="42.90888" lon="0.21411">
        <ele>1596.1</ele>
        <time>2016-07-24T13:18:35Z</time>
      </trkpt>
      <trkpt lat="42.90895" lon="0.21417">
        <ele>1595.4</ele>
        <time>2016-07-24T13:18:41Z</time>
      </trkpt>
      <trkpt lat="42.90901" lon="0.21425">
        <ele>1594.6</ele>
        <time>2016-07-24T13:18:48Z</time>
      </trkpt>
      <trkpt lat="42.90908" lon="0.2143">
        <ele>1595.6</ele>
        <time>2016-07-24T13:18:52Z</time>
      </trkpt>
      <trkpt lat="42.90914" lon="0.21439">
        <ele>1594.9</ele>
        <time>2016-07-24T13:18:58Z</time>
      </trkpt>
      <trkpt lat="42.90922" lon="0.21443">
        <ele>1595</ele>
        <time>2016-07-24T13:19:04Z</time>
      </trkpt>
      <trkpt lat="42.90929" lon="0.21446">
        <ele>1593.9</ele>
        <time>2016-07-24T13:19:09Z</time>
      </trkpt>
      <trkpt lat="42.90936" lon="0.21451">
        <ele>1593.9</ele>
        <time>2016-07-24T13:19:14Z</time>
      </trkpt>
      <trkpt lat="42.90944" lon="0.21456">
        <ele>1593.7</ele>
        <time>2016-07-24T13:19:20Z</time>
      </trkpt>
      <trkpt lat="42.90945" lon="0.21456">
        <ele>1593.6</ele>
        <time>2016-07-24T13:19:21Z</time>
      </trkpt>
      <trkpt lat="42.90959" lon="0.21467">
        <ele>1590.1</ele>
        <time>2016-07-24T13:19:36Z</time>
      </trkpt>
      <trkpt lat="42.90966" lon="0.21473">
        <ele>1588.8</ele>
        <time>2016-07-24T13:19:43Z</time>
      </trkpt>
      <trkpt lat="42.90973" lon="0.21479">
        <ele>1588.7</ele>
        <time>2016-07-24T13:19:51Z</time>
      </trkpt>
      <trkpt lat="42.9098" lon="0.21485">
        <ele>1586.7</ele>
        <time>2016-07-24T13:19:57Z</time>
      </trkpt>
      <trkpt lat="42.90988" lon="0.2149">
        <ele>1586.5</ele>
        <time>2016-07-24T13:20:03Z</time>
      </trkpt>
      <trkpt lat="42.90996" lon="0.21494">
        <ele>1586.1</ele>
        <time>2016-07-24T13:20:08Z</time>
      </trkpt>
      <trkpt lat="42.91002" lon="0.21502">
        <ele>1585.5</ele>
        <time>2016-07-24T13:20:14Z</time>
      </trkpt>
      <trkpt lat="42.91009" lon="0.21507">
        <ele>1584.7</ele>
        <time>2016-07-24T13:20:21Z</time>
      </trkpt>
      <trkpt lat="42.91011" lon="0.21507">
        <ele>1584.7</ele>
        <time>2016-07-24T13:20:22Z</time>
      </trkpt>
      <trkpt lat="42.91024" lon="0.21518">
        <ele>1581.9</ele>
        <time>2016-07-24T13:20:49Z</time>
      </trkpt>
      <trkpt lat="42.91032" lon="0.21522">
        <ele>1581.2</ele>
        <time>2016-07-24T13:21:06Z</time>
      </trkpt>
      <trkpt lat="42.91041" lon="0.21525">
        <ele>1580.1</ele>
        <time>2016-07-24T13:21:14Z</time>
      </trkpt>
      <trkpt lat="42.9105" lon="0.21531">
        <ele>1578</ele>
        <time>2016-07-24T13:21:28Z</time>
      </trkpt>
      <trkpt lat="42.91051" lon="0.21531">
        <ele>1578.8</ele>
        <time>2016-07-24T13:21:30Z</time>
      </trkpt>
      <trkpt lat="42.91066" lon="0.2153">
        <ele>1575.5</ele>
        <time>2016-07-24T13:21:44Z</time>
      </trkpt>
      <trkpt lat="42.91074" lon="0.2153">
        <ele>1575.4</ele>
        <time>2016-07-24T13:21:51Z</time>
      </trkpt>
      <trkpt lat="42.91082" lon="0.21525">
        <ele>1573.8</ele>
        <time>2016-07-24T13:21:58Z</time>
      </trkpt>
      <trkpt lat="42.91088" lon="0.21517">
        <ele>1574.1</ele>
        <time>2016-07-24T13:22:08Z</time>
      </trkpt>
      <trkpt lat="42.91092" lon="0.21506">
        <ele>1577.9</ele>
        <time>2016-07-24T13:22:23Z</time>
      </trkpt>
      <trkpt lat="42.91097" lon="0.21497">
        <ele>1581.6</ele>
        <time>2016-07-24T13:22:34Z</time>
      </trkpt>
      <trkpt lat="42.91098" lon="0.21496">
        <ele>1581.9</ele>
        <time>2016-07-24T13:22:35Z</time>
      </trkpt>
      <trkpt lat="42.91113" lon="0.21485">
        <ele>1583</ele>
        <time>2016-07-24T13:22:55Z</time>
      </trkpt>
      <trkpt lat="42.91119" lon="0.21476">
        <ele>1583.4</ele>
        <time>2016-07-24T13:23:12Z</time>
      </trkpt>
      <trkpt lat="42.91128" lon="0.21478">
        <ele>1584</ele>
        <time>2016-07-24T13:23:42Z</time>
      </trkpt>
      <trkpt lat="42.91128" lon="0.21478">
        <ele>1584</ele>
        <time>2016-07-24T13:23:43Z</time>
      </trkpt>
      <trkpt lat="42.9113" lon="0.2149">
        <ele>1582.5</ele>
        <time>2016-07-24T13:24:58Z</time>
      </trkpt>
      <trkpt lat="42.91144" lon="0.21502">
        <ele>1577.7</ele>
        <time>2016-07-24T13:25:40Z</time>
      </trkpt>
      <trkpt lat="42.91151" lon="0.21508">
        <ele>1576.7</ele>
        <time>2016-07-24T13:25:47Z</time>
      </trkpt>
      <trkpt lat="42.91157" lon="0.21516">
        <ele>1576.3</ele>
        <time>2016-07-24T13:25:53Z</time>
      </trkpt>
      <trkpt lat="42.91163" lon="0.21522">
        <ele>1576.4</ele>
        <time>2016-07-24T13:25:59Z</time>
      </trkpt>
      <trkpt lat="42.91164" lon="0.21523">
        <ele>1576.4</ele>
        <time>2016-07-24T13:26:00Z</time>
      </trkpt>
      <trkpt lat="42.91174" lon="0.2154">
        <ele>1577.8</ele>
        <time>2016-07-24T13:26:16Z</time>
      </trkpt>
      <trkpt lat="42.9118" lon="0.21547">
        <ele>1575.8</ele>
        <time>2016-07-24T13:26:30Z</time>
      </trkpt>
      <trkpt lat="42.91186" lon="0.21554">
        <ele>1574.9</ele>
        <time>2016-07-24T13:26:36Z</time>
      </trkpt>
      <trkpt lat="42.91193" lon="0.21561">
        <ele>1573.8</ele>
        <time>2016-07-24T13:26:42Z</time>
      </trkpt>
      <trkpt lat="42.912" lon="0.21569">
        <ele>1574.7</ele>
        <time>2016-07-24T13:26:48Z</time>
      </trkpt>
      <trkpt lat="42.91207" lon="0.21574">
        <ele>1573.9</ele>
        <time>2016-07-24T13:26:54Z</time>
      </trkpt>
      <trkpt lat="42.91215" lon="0.21578">
        <ele>1573.8</ele>
        <time>2016-07-24T13:27:02Z</time>
      </trkpt>
      <trkpt lat="42.91216" lon="0.21579">
        <ele>1574</ele>
        <time>2016-07-24T13:27:03Z</time>
      </trkpt>
      <trkpt lat="42.91231" lon="0.21587">
        <ele>1574.9</ele>
        <time>2016-07-24T13:27:19Z</time>
      </trkpt>
      <trkpt lat="42.91238" lon="0.2159">
        <ele>1575.4</ele>
        <time>2016-07-24T13:27:27Z</time>
      </trkpt>
      <trkpt lat="42.91246" lon="0.21593">
        <ele>1576.7</ele>
        <time>2016-07-24T13:27:34Z</time>
      </trkpt>
      <trkpt lat="42.91254" lon="0.21597">
        <ele>1577.8</ele>
        <time>2016-07-24T13:27:42Z</time>
      </trkpt>
      <trkpt lat="42.91261" lon="0.216">
        <ele>1576.6</ele>
        <time>2016-07-24T13:27:49Z</time>
      </trkpt>
      <trkpt lat="42.91269" lon="0.21604">
        <ele>1577.4</ele>
        <time>2016-07-24T13:27:56Z</time>
      </trkpt>
      <trkpt lat="42.91278" lon="0.21607">
        <ele>1577.9</ele>
        <time>2016-07-24T13:28:03Z</time>
      </trkpt>
      <trkpt lat="42.91279" lon="0.21608">
        <ele>1577.9</ele>
        <time>2016-07-24T13:28:04Z</time>
      </trkpt>
      <trkpt lat="42.91292" lon="0.21617">
        <ele>1578.4</ele>
        <time>2016-07-24T13:28:18Z</time>
      </trkpt>
      <trkpt lat="42.91301" lon="0.21621">
        <ele>1579.4</ele>
        <time>2016-07-24T13:28:27Z</time>
      </trkpt>
      <trkpt lat="42.91309" lon="0.21625">
        <ele>1578.8</ele>
        <time>2016-07-24T13:28:35Z</time>
      </trkpt>
      <trkpt lat="42.91316" lon="0.21629">
        <ele>1578.8</ele>
        <time>2016-07-24T13:28:42Z</time>
      </trkpt>
      <trkpt lat="42.91324" lon="0.21635">
        <ele>1579.1</ele>
        <time>2016-07-24T13:28:50Z</time>
      </trkpt>
      <trkpt lat="42.91332" lon="0.21638">
        <ele>1578.4</ele>
        <time>2016-07-24T13:28:58Z</time>
      </trkpt>
      <trkpt lat="42.91339" lon="0.2164">
        <ele>1578.4</ele>
        <time>2016-07-24T13:29:06Z</time>
      </trkpt>
      <trkpt lat="42.91341" lon="0.2164">
        <ele>1578.3</ele>
        <time>2016-07-24T13:29:07Z</time>
      </trkpt>
      <trkpt lat="42.91355" lon="0.21649">
        <ele>1580.7</ele>
        <time>2016-07-24T13:29:20Z</time>
      </trkpt>
      <trkpt lat="42.91363" lon="0.21654">
        <ele>1580.9</ele>
        <time>2016-07-24T13:29:30Z</time>
      </trkpt>
      <trkpt lat="42.9137" lon="0.21659">
        <ele>1580.1</ele>
        <time>2016-07-24T13:29:40Z</time>
      </trkpt>
      <trkpt lat="42.91378" lon="0.21664">
        <ele>1580.5</ele>
        <time>2016-07-24T13:29:48Z</time>
      </trkpt>
      <trkpt lat="42.91386" lon="0.21669">
        <ele>1580.5</ele>
        <time>2016-07-24T13:29:56Z</time>
      </trkpt>
      <trkpt lat="42.91394" lon="0.21671">
        <ele>1578.3</ele>
        <time>2016-07-24T13:30:03Z</time>
      </trkpt>
      <trkpt lat="42.91402" lon="0.21675">
        <ele>1579.1</ele>
        <time>2016-07-24T13:30:10Z</time>
      </trkpt>
      <trkpt lat="42.91403" lon="0.21675">
        <ele>1579.2</ele>
        <time>2016-07-24T13:30:11Z</time>
      </trkpt>
      <trkpt lat="42.91419" lon="0.21678">
        <ele>1578.3</ele>
        <time>2016-07-24T13:30:26Z</time>
      </trkpt>
      <trkpt lat="42.91428" lon="0.21678">
        <ele>1577.6</ele>
        <time>2016-07-24T13:30:34Z</time>
      </trkpt>
      <trkpt lat="42.91435" lon="0.21678">
        <ele>1578.1</ele>
        <time>2016-07-24T13:30:42Z</time>
      </trkpt>
      <trkpt lat="42.91444" lon="0.21677">
        <ele>1577.5</ele>
        <time>2016-07-24T13:30:49Z</time>
      </trkpt>
      <trkpt lat="42.91452" lon="0.21677">
        <ele>1577.7</ele>
        <time>2016-07-24T13:30:56Z</time>
      </trkpt>
      <trkpt lat="42.9146" lon="0.21677">
        <ele>1578.1</ele>
        <time>2016-07-24T13:31:03Z</time>
      </trkpt>
      <trkpt lat="42.91468" lon="0.21672">
        <ele>1577.7</ele>
        <time>2016-07-24T13:31:12Z</time>
      </trkpt>
      <trkpt lat="42.91469" lon="0.21672">
        <ele>1577.8</ele>
        <time>2016-07-24T13:31:13Z</time>
      </trkpt>
      <trkpt lat="42.91457" lon="0.21657">
        <ele>1578.4</ele>
        <time>2016-07-24T13:31:54Z</time>
      </trkpt>
      <trkpt lat="42.91461" lon="0.21646">
        <ele>1578.6</ele>
        <time>2016-07-24T13:32:04Z</time>
      </trkpt>
      <trkpt lat="42.91468" lon="0.2164">
        <ele>1577.7</ele>
        <time>2016-07-24T13:32:11Z</time>
      </trkpt>
      <trkpt lat="42.91476" lon="0.21638">
        <ele>1577.1</ele>
        <time>2016-07-24T13:32:16Z</time>
      </trkpt>
      <trkpt lat="42.91477" lon="0.21637">
        <ele>1577</ele>
        <time>2016-07-24T13:32:17Z</time>
      </trkpt>
      <trkpt lat="42.91491" lon="0.21631">
        <ele>1577.2</ele>
        <time>2016-07-24T13:32:26Z</time>
      </trkpt>
      <trkpt lat="42.91499" lon="0.21627">
        <ele>1576.3</ele>
        <time>2016-07-24T13:32:32Z</time>
      </trkpt>
      <trkpt lat="42.91507" lon="0.21621">
        <ele>1576.1</ele>
        <time>2016-07-24T13:32:38Z</time>
      </trkpt>
      <trkpt lat="42.91515" lon="0.21616">
        <ele>1576.9</ele>
        <time>2016-07-24T13:32:45Z</time>
      </trkpt>
      <trkpt lat="42.91521" lon="0.21609">
        <ele>1575.9</ele>
        <time>2016-07-24T13:32:51Z</time>
      </trkpt>
      <trkpt lat="42.91526" lon="0.216">
        <ele>1576</ele>
        <time>2016-07-24T13:32:59Z</time>
      </trkpt>
      <trkpt lat="42.9153" lon="0.2159">
        <ele>1575.5</ele>
        <time>2016-07-24T13:33:07Z</time>
      </trkpt>
      <trkpt lat="42.91534" lon="0.21581">
        <ele>1576.2</ele>
        <time>2016-07-24T13:33:14Z</time>
      </trkpt>
      <trkpt lat="42.91538" lon="0.21571">
        <ele>1575.2</ele>
        <time>2016-07-24T13:33:22Z</time>
      </trkpt>
      <trkpt lat="42.91538" lon="0.21569">
        <ele>1574.9</ele>
        <time>2016-07-24T13:33:23Z</time>
      </trkpt>
      <trkpt lat="42.9154" lon="0.21547">
        <ele>1575.4</ele>
        <time>2016-07-24T13:33:50Z</time>
      </trkpt>
      <trkpt lat="42.91545" lon="0.21537">
        <ele>1574.4</ele>
        <time>2016-07-24T13:33:58Z</time>
      </trkpt>
      <trkpt lat="42.91547" lon="0.21526">
        <ele>1573.8</ele>
        <time>2016-07-24T13:34:06Z</time>
      </trkpt>
      <trkpt lat="42.9155" lon="0.21515">
        <ele>1572.7</ele>
        <time>2016-07-24T13:34:14Z</time>
      </trkpt>
      <trkpt lat="42.91554" lon="0.21505">
        <ele>1571.5</ele>
        <time>2016-07-24T13:34:21Z</time>
      </trkpt>
      <trkpt lat="42.91557" lon="0.21495">
        <ele>1570.2</ele>
        <time>2016-07-24T13:34:28Z</time>
      </trkpt>
      <trkpt lat="42.91557" lon="0.21493">
        <ele>1570.1</ele>
        <time>2016-07-24T13:34:29Z</time>
      </trkpt>
      <trkpt lat="42.91561" lon="0.21473">
        <ele>1569.7</ele>
        <time>2016-07-24T13:34:42Z</time>
      </trkpt>
      <trkpt lat="42.91563" lon="0.21461">
        <ele>1569</ele>
        <time>2016-07-24T13:34:50Z</time>
      </trkpt>
      <trkpt lat="42.91567" lon="0.21451">
        <ele>1568.2</ele>
        <time>2016-07-24T13:34:58Z</time>
      </trkpt>
      <trkpt lat="42.91569" lon="0.2144">
        <ele>1566.7</ele>
        <time>2016-07-24T13:35:07Z</time>
      </trkpt>
      <trkpt lat="42.91571" lon="0.21428">
        <ele>1565.1</ele>
        <time>2016-07-24T13:35:27Z</time>
      </trkpt>
      <trkpt lat="42.91574" lon="0.21417">
        <ele>1562.6</ele>
        <time>2016-07-24T13:35:36Z</time>
      </trkpt>
      <trkpt lat="42.91574" lon="0.21416">
        <ele>1562.4</ele>
        <time>2016-07-24T13:35:37Z</time>
      </trkpt>
      <trkpt lat="42.9158" lon="0.21396">
        <ele>1557.8</ele>
        <time>2016-07-24T13:35:57Z</time>
      </trkpt>
      <trkpt lat="42.91584" lon="0.21386">
        <ele>1554.4</ele>
        <time>2016-07-24T13:36:10Z</time>
      </trkpt>
      <trkpt lat="42.91589" lon="0.21377">
        <ele>1550.6</ele>
        <time>2016-07-24T13:36:24Z</time>
      </trkpt>
      <trkpt lat="42.91588" lon="0.21365">
        <ele>1547</ele>
        <time>2016-07-24T13:36:41Z</time>
      </trkpt>
      <trkpt lat="42.91588" lon="0.21364">
        <ele>1546.8</ele>
        <time>2016-07-24T13:36:42Z</time>
      </trkpt>
      <trkpt lat="42.9159" lon="0.21345">
        <ele>1538.9</ele>
        <time>2016-07-24T13:37:19Z</time>
      </trkpt>
      <trkpt lat="42.91587" lon="0.21333">
        <ele>1532.6</ele>
        <time>2016-07-24T13:37:44Z</time>
      </trkpt>
      <trkpt lat="42.91586" lon="0.21333">
        <ele>1532.4</ele>
        <time>2016-07-24T13:37:45Z</time>
      </trkpt>
      <trkpt lat="42.91587" lon="0.21311">
        <ele>1523.7</ele>
        <time>2016-07-24T13:38:24Z</time>
      </trkpt>
      <trkpt lat="42.91581" lon="0.21303">
        <ele>1521.9</ele>
        <time>2016-07-24T13:38:35Z</time>
      </trkpt>
      <trkpt lat="42.91573" lon="0.21297">
        <ele>1521.3</ele>
        <time>2016-07-24T13:38:53Z</time>
      </trkpt>
      <trkpt lat="42.91573" lon="0.21296">
        <ele>1520.8</ele>
        <time>2016-07-24T13:38:54Z</time>
      </trkpt>
      <trkpt lat="42.91559" lon="0.21285">
        <ele>1519.2</ele>
        <time>2016-07-24T13:39:22Z</time>
      </trkpt>
      <trkpt lat="42.91564" lon="0.21277">
        <ele>1517.2</ele>
        <time>2016-07-24T13:39:31Z</time>
      </trkpt>
      <trkpt lat="42.91571" lon="0.21269">
        <ele>1514.4</ele>
        <time>2016-07-24T13:39:38Z</time>
      </trkpt>
      <trkpt lat="42.9157" lon="0.21258">
        <ele>1511.6</ele>
        <time>2016-07-24T13:39:46Z</time>
      </trkpt>
      <trkpt lat="42.9157" lon="0.21247">
        <ele>1510</ele>
        <time>2016-07-24T13:39:56Z</time>
      </trkpt>
      <trkpt lat="42.9157" lon="0.21246">
        <ele>1510</ele>
        <time>2016-07-24T13:39:57Z</time>
      </trkpt>
      <trkpt lat="42.91578" lon="0.21226">
        <ele>1503.2</ele>
        <time>2016-07-24T13:40:32Z</time>
      </trkpt>
      <trkpt lat="42.91572" lon="0.21216">
        <ele>1500.5</ele>
        <time>2016-07-24T13:40:45Z</time>
      </trkpt>
      <trkpt lat="42.91566" lon="0.21209">
        <ele>1498.3</ele>
        <time>2016-07-24T13:40:59Z</time>
      </trkpt>
      <trkpt lat="42.91565" lon="0.21208">
        <ele>1498</ele>
        <time>2016-07-24T13:41:00Z</time>
      </trkpt>
      <trkpt lat="42.91568" lon="0.2119">
        <ele>1492</ele>
        <time>2016-07-24T13:41:38Z</time>
      </trkpt>
      <trkpt lat="42.91565" lon="0.21178">
        <ele>1488.3</ele>
        <time>2016-07-24T13:42:01Z</time>
      </trkpt>
      <trkpt lat="42.91565" lon="0.21178">
        <ele>1488.4</ele>
        <time>2016-07-24T13:42:02Z</time>
      </trkpt>
      <trkpt lat="42.91569" lon="0.21155">
        <ele>1478.4</ele>
        <time>2016-07-24T13:43:06Z</time>
      </trkpt>
      <trkpt lat="42.91569" lon="0.21155">
        <ele>1478.2</ele>
        <time>2016-07-24T13:43:07Z</time>
      </trkpt>
      <trkpt lat="42.91579" lon="0.21135">
        <ele>1471</ele>
        <time>2016-07-24T13:43:41Z</time>
      </trkpt>
      <trkpt lat="42.91585" lon="0.21126">
        <ele>1466.4</ele>
        <time>2016-07-24T13:44:01Z</time>
      </trkpt>
      <trkpt lat="42.91589" lon="0.21116">
        <ele>1464.4</ele>
        <time>2016-07-24T13:44:12Z</time>
      </trkpt>
      <trkpt lat="42.91589" lon="0.21115">
        <ele>1464.1</ele>
        <time>2016-07-24T13:44:13Z</time>
      </trkpt>
      <trkpt lat="42.91598" lon="0.21095">
        <ele>1460</ele>
        <time>2016-07-24T13:44:34Z</time>
      </trkpt>
      <trkpt lat="42.91599" lon="0.21083">
        <ele>1458.6</ele>
        <time>2016-07-24T13:44:43Z</time>
      </trkpt>
      <trkpt lat="42.916" lon="0.21071">
        <ele>1456.7</ele>
        <time>2016-07-24T13:44:53Z</time>
      </trkpt>
      <trkpt lat="42.91604" lon="0.21061">
        <ele>1455.7</ele>
        <time>2016-07-24T13:45:03Z</time>
      </trkpt>
      <trkpt lat="42.91604" lon="0.21049">
        <ele>1454.1</ele>
        <time>2016-07-24T13:45:12Z</time>
      </trkpt>
      <trkpt lat="42.91608" lon="0.21039">
        <ele>1452.5</ele>
        <time>2016-07-24T13:45:18Z</time>
      </trkpt>
      <trkpt lat="42.91609" lon="0.21038">
        <ele>1452.4</ele>
        <time>2016-07-24T13:45:19Z</time>
      </trkpt>
      <trkpt lat="42.91614" lon="0.21018">
        <ele>1451.2</ele>
        <time>2016-07-24T13:45:33Z</time>
      </trkpt>
      <trkpt lat="42.91618" lon="0.21008">
        <ele>1451.1</ele>
        <time>2016-07-24T13:45:48Z</time>
      </trkpt>
      <trkpt lat="42.91623" lon="0.20999">
        <ele>1450.2</ele>
        <time>2016-07-24T13:45:59Z</time>
      </trkpt>
      <trkpt lat="42.91631" lon="0.20997">
        <ele>1448.9</ele>
        <time>2016-07-24T13:46:08Z</time>
      </trkpt>
      <trkpt lat="42.91639" lon="0.20992">
        <ele>1446.7</ele>
        <time>2016-07-24T13:46:18Z</time>
      </trkpt>
      <trkpt lat="42.91645" lon="0.20984">
        <ele>1446.6</ele>
        <time>2016-07-24T13:46:32Z</time>
      </trkpt>
      <trkpt lat="42.91646" lon="0.20983">
        <ele>1446.1</ele>
        <time>2016-07-24T13:46:33Z</time>
      </trkpt>
      <trkpt lat="42.91661" lon="0.20977">
        <ele>1442.3</ele>
        <time>2016-07-24T13:46:49Z</time>
      </trkpt>
      <trkpt lat="42.91669" lon="0.20973">
        <ele>1440.8</ele>
        <time>2016-07-24T13:46:57Z</time>
      </trkpt>
      <trkpt lat="42.91669" lon="0.20961">
        <ele>1440.7</ele>
        <time>2016-07-24T13:47:11Z</time>
      </trkpt>
      <trkpt lat="42.91667" lon="0.20949">
        <ele>1442.8</ele>
        <time>2016-07-24T13:47:19Z</time>
      </trkpt>
      <trkpt lat="42.91665" lon="0.20938">
        <ele>1444</ele>
        <time>2016-07-24T13:47:28Z</time>
      </trkpt>
      <trkpt lat="42.91664" lon="0.20925">
        <ele>1447.9</ele>
        <time>2016-07-24T13:47:50Z</time>
      </trkpt>
      <trkpt lat="42.91665" lon="0.20925">
        <ele>1448.2</ele>
        <time>2016-07-24T13:47:51Z</time>
      </trkpt>
      <trkpt lat="42.9167" lon="0.20946">
        <ele>1451.9</ele>
        <time>2016-07-24T13:48:16Z</time>
      </trkpt>
      <trkpt lat="42.91678" lon="0.20949">
        <ele>1453</ele>
        <time>2016-07-24T13:48:27Z</time>
      </trkpt>
      <trkpt lat="42.91686" lon="0.20955">
        <ele>1451.7</ele>
        <time>2016-07-24T13:48:48Z</time>
      </trkpt>
      <trkpt lat="42.91693" lon="0.20962">
        <ele>1451</ele>
        <time>2016-07-24T13:49:01Z</time>
      </trkpt>
      <trkpt lat="42.91694" lon="0.20962">
        <ele>1450.9</ele>
        <time>2016-07-24T13:49:02Z</time>
      </trkpt>
      <trkpt lat="42.91708" lon="0.20953">
        <ele>1448.3</ele>
        <time>2016-07-24T13:49:36Z</time>
      </trkpt>
      <trkpt lat="42.91715" lon="0.20946">
        <ele>1447.5</ele>
        <time>2016-07-24T13:49:44Z</time>
      </trkpt>
      <trkpt lat="42.91723" lon="0.20942">
        <ele>1447.9</ele>
        <time>2016-07-24T13:49:52Z</time>
      </trkpt>
      <trkpt lat="42.91732" lon="0.2094">
        <ele>1447.3</ele>
        <time>2016-07-24T13:50:18Z</time>
      </trkpt>
      <trkpt lat="42.91732" lon="0.20941">
        <ele>1447.2</ele>
        <time>2016-07-24T13:50:19Z</time>
      </trkpt>
      <trkpt lat="42.91735" lon="0.20938">
        <ele>1446.5</ele>
        <time>2016-07-24T13:50:53Z</time>
      </trkpt>
    </trkseg>
  </trk>
</gpx>